<?xml version="1.0" encoding="UTF-8" standalone="no" ?>
<gpx xmlns="http://www.topografix.com/GPX/1/1" xmlns:xsi="http://www.w3.org/2001/XMLSchema-instance" xsi:schemaLocation="http://www.topografix.com/GPX/1/1 http://www.topografix.com/GPX/1/1/gpx.xsd" version="1.1" creator="VisuGPX - https://www.visugpx.com">
  <metadata>
    <name>Grans Cornillon</name>
    <desc><![CDATA[
]]></desc>
  </metadata>
  <trk>
    <name><![CDATA[Grans Cornillon]]></name>
    <trkseg>
      <trkpt lat="43.59371" lon="5.06843">
        <ele>71.2</ele>
        <time>2020-03-02T12:44:58Z</time>
      </trkpt>
      <trkpt lat="43.59365" lon="5.06841">
        <ele>71.3</ele>
        <time>2020-03-02T12:46:28Z</time>
      </trkpt>
      <trkpt lat="43.5935" lon="5.06846">
        <ele>71.8</ele>
        <time>2020-03-02T12:46:48Z</time>
      </trkpt>
      <trkpt lat="43.59333" lon="5.06854">
        <ele>72.5</ele>
        <time>2020-03-02T12:47:06Z</time>
      </trkpt>
      <trkpt lat="43.59316" lon="5.06862">
        <ele>73.2</ele>
        <time>2020-03-02T12:47:24Z</time>
      </trkpt>
      <trkpt lat="43.59297" lon="5.06865">
        <ele>73.8</ele>
        <time>2020-03-02T12:47:39Z</time>
      </trkpt>
      <trkpt lat="43.59279" lon="5.06868">
        <ele>74.4</ele>
        <time>2020-03-02T12:47:54Z</time>
      </trkpt>
      <trkpt lat="43.5926" lon="5.06869">
        <ele>75</ele>
        <time>2020-03-02T12:48:09Z</time>
      </trkpt>
      <trkpt lat="43.59242" lon="5.06867">
        <ele>75.3</ele>
        <time>2020-03-02T12:48:25Z</time>
      </trkpt>
      <trkpt lat="43.59224" lon="5.06865">
        <ele>75.3</ele>
        <time>2020-03-02T12:48:40Z</time>
      </trkpt>
      <trkpt lat="43.59212" lon="5.06855">
        <ele>74.9</ele>
        <time>2020-03-02T12:49:18Z</time>
      </trkpt>
      <trkpt lat="43.59207" lon="5.06839">
        <ele>74.2</ele>
        <time>2020-03-02T12:49:58Z</time>
      </trkpt>
      <trkpt lat="43.59206" lon="5.06859">
        <ele>75.1</ele>
        <time>2020-03-02T12:51:33Z</time>
      </trkpt>
      <trkpt lat="43.59202" lon="5.06884">
        <ele>76.2</ele>
        <time>2020-03-02T12:51:50Z</time>
      </trkpt>
      <trkpt lat="43.59186" lon="5.06896">
        <ele>76.8</ele>
        <time>2020-03-02T12:52:04Z</time>
      </trkpt>
      <trkpt lat="43.59167" lon="5.069">
        <ele>77.2</ele>
        <time>2020-03-02T12:52:19Z</time>
      </trkpt>
      <trkpt lat="43.5915" lon="5.06908">
        <ele>76.1</ele>
        <time>2020-03-02T12:52:36Z</time>
      </trkpt>
      <trkpt lat="43.59133" lon="5.06919">
        <ele>74.7</ele>
        <time>2020-03-02T12:52:52Z</time>
      </trkpt>
      <trkpt lat="43.59116" lon="5.06928">
        <ele>73.2</ele>
        <time>2020-03-02T12:53:07Z</time>
      </trkpt>
      <trkpt lat="43.59103" lon="5.06946">
        <ele>72.3</ele>
        <time>2020-03-02T12:53:24Z</time>
      </trkpt>
      <trkpt lat="43.59097" lon="5.0697">
        <ele>72.2</ele>
        <time>2020-03-02T12:53:42Z</time>
      </trkpt>
      <trkpt lat="43.59098" lon="5.06996">
        <ele>72.7</ele>
        <time>2020-03-02T12:53:59Z</time>
      </trkpt>
      <trkpt lat="43.59086" lon="5.07012">
        <ele>71.7</ele>
        <time>2020-03-02T12:54:15Z</time>
      </trkpt>
      <trkpt lat="43.59068" lon="5.07018">
        <ele>71.4</ele>
        <time>2020-03-02T12:54:32Z</time>
      </trkpt>
      <trkpt lat="43.5905" lon="5.07023">
        <ele>71.4</ele>
        <time>2020-03-02T12:54:46Z</time>
      </trkpt>
      <trkpt lat="43.59032" lon="5.07028">
        <ele>71.4</ele>
        <time>2020-03-02T12:55:02Z</time>
      </trkpt>
      <trkpt lat="43.59015" lon="5.07039">
        <ele>71.4</ele>
        <time>2020-03-02T12:55:19Z</time>
      </trkpt>
      <trkpt lat="43.59001" lon="5.07057">
        <ele>71.3</ele>
        <time>2020-03-02T12:55:35Z</time>
      </trkpt>
      <trkpt lat="43.58986" lon="5.07072">
        <ele>71.9</ele>
        <time>2020-03-02T12:55:51Z</time>
      </trkpt>
      <trkpt lat="43.58971" lon="5.07087">
        <ele>72.7</ele>
        <time>2020-03-02T12:56:09Z</time>
      </trkpt>
      <trkpt lat="43.58952" lon="5.07084">
        <ele>73.9</ele>
        <time>2020-03-02T12:56:25Z</time>
      </trkpt>
      <trkpt lat="43.58936" lon="5.07076">
        <ele>74.6</ele>
        <time>2020-03-02T12:56:43Z</time>
      </trkpt>
      <trkpt lat="43.58918" lon="5.07073">
        <ele>75.4</ele>
        <time>2020-03-02T12:56:56Z</time>
      </trkpt>
      <trkpt lat="43.58899" lon="5.07068">
        <ele>75.6</ele>
        <time>2020-03-02T12:57:12Z</time>
      </trkpt>
      <trkpt lat="43.58882" lon="5.0706">
        <ele>75.8</ele>
        <time>2020-03-02T12:57:27Z</time>
      </trkpt>
      <trkpt lat="43.58864" lon="5.07053">
        <ele>76.1</ele>
        <time>2020-03-02T12:57:43Z</time>
      </trkpt>
      <trkpt lat="43.58848" lon="5.0704">
        <ele>76.5</ele>
        <time>2020-03-02T12:58:01Z</time>
      </trkpt>
      <trkpt lat="43.58832" lon="5.07026">
        <ele>77</ele>
        <time>2020-03-02T12:58:17Z</time>
      </trkpt>
      <trkpt lat="43.58819" lon="5.07008">
        <ele>77.3</ele>
        <time>2020-03-02T12:58:34Z</time>
      </trkpt>
      <trkpt lat="43.58802" lon="5.07007">
        <ele>77.7</ele>
        <time>2020-03-02T12:58:51Z</time>
      </trkpt>
      <trkpt lat="43.58783" lon="5.07009">
        <ele>78</ele>
        <time>2020-03-02T12:59:08Z</time>
      </trkpt>
      <trkpt lat="43.58764" lon="5.07011">
        <ele>78.3</ele>
        <time>2020-03-02T12:59:27Z</time>
      </trkpt>
      <trkpt lat="43.58746" lon="5.07011">
        <ele>78.6</ele>
        <time>2020-03-02T12:59:46Z</time>
      </trkpt>
      <trkpt lat="43.58729" lon="5.07019">
        <ele>78.5</ele>
        <time>2020-03-02T13:00:05Z</time>
      </trkpt>
      <trkpt lat="43.58712" lon="5.07032">
        <ele>78.4</ele>
        <time>2020-03-02T13:00:20Z</time>
      </trkpt>
      <trkpt lat="43.58694" lon="5.07034">
        <ele>78.6</ele>
        <time>2020-03-02T13:00:36Z</time>
      </trkpt>
      <trkpt lat="43.58678" lon="5.07029">
        <ele>78.9</ele>
        <time>2020-03-02T13:01:16Z</time>
      </trkpt>
      <trkpt lat="43.58661" lon="5.07022">
        <ele>79</ele>
        <time>2020-03-02T13:01:33Z</time>
      </trkpt>
      <trkpt lat="43.58644" lon="5.07013">
        <ele>79</ele>
        <time>2020-03-02T13:01:51Z</time>
      </trkpt>
      <trkpt lat="43.58628" lon="5.07001">
        <ele>79</ele>
        <time>2020-03-02T13:02:10Z</time>
      </trkpt>
      <trkpt lat="43.58613" lon="5.06984">
        <ele>79.2</ele>
        <time>2020-03-02T13:02:29Z</time>
      </trkpt>
      <trkpt lat="43.58602" lon="5.06965">
        <ele>79</ele>
        <time>2020-03-02T13:02:45Z</time>
      </trkpt>
      <trkpt lat="43.58587" lon="5.06949">
        <ele>78.5</ele>
        <time>2020-03-02T13:03:02Z</time>
      </trkpt>
      <trkpt lat="43.58571" lon="5.06936">
        <ele>78.2</ele>
        <time>2020-03-02T13:03:20Z</time>
      </trkpt>
      <trkpt lat="43.58553" lon="5.06929">
        <ele>78.1</ele>
        <time>2020-03-02T13:03:36Z</time>
      </trkpt>
      <trkpt lat="43.58535" lon="5.06923">
        <ele>78.1</ele>
        <time>2020-03-02T13:03:55Z</time>
      </trkpt>
      <trkpt lat="43.58518" lon="5.06917">
        <ele>78</ele>
        <time>2020-03-02T13:04:11Z</time>
      </trkpt>
      <trkpt lat="43.585" lon="5.06918">
        <ele>78</ele>
        <time>2020-03-02T13:04:27Z</time>
      </trkpt>
      <trkpt lat="43.58481" lon="5.06919">
        <ele>77.6</ele>
        <time>2020-03-02T13:04:45Z</time>
      </trkpt>
      <trkpt lat="43.58463" lon="5.06918">
        <ele>77.1</ele>
        <time>2020-03-02T13:05:03Z</time>
      </trkpt>
      <trkpt lat="43.58445" lon="5.06919">
        <ele>76.7</ele>
        <time>2020-03-02T13:05:21Z</time>
      </trkpt>
      <trkpt lat="43.58427" lon="5.06912">
        <ele>76.1</ele>
        <time>2020-03-02T13:05:37Z</time>
      </trkpt>
      <trkpt lat="43.58408" lon="5.06907">
        <ele>75.9</ele>
        <time>2020-03-02T13:06:04Z</time>
      </trkpt>
      <trkpt lat="43.58389" lon="5.06903">
        <ele>76.2</ele>
        <time>2020-03-02T13:06:17Z</time>
      </trkpt>
      <trkpt lat="43.58373" lon="5.06895">
        <ele>76.3</ele>
        <time>2020-03-02T13:06:31Z</time>
      </trkpt>
      <trkpt lat="43.58354" lon="5.06894">
        <ele>76.5</ele>
        <time>2020-03-02T13:06:47Z</time>
      </trkpt>
      <trkpt lat="43.58343" lon="5.06894">
        <ele>76.7</ele>
        <time>2020-03-02T13:08:03Z</time>
      </trkpt>
      <trkpt lat="43.58326" lon="5.06886">
        <ele>76.5</ele>
        <time>2020-03-02T13:08:24Z</time>
      </trkpt>
      <trkpt lat="43.58308" lon="5.06882">
        <ele>76.3</ele>
        <time>2020-03-02T13:08:49Z</time>
      </trkpt>
      <trkpt lat="43.5829" lon="5.06886">
        <ele>76.5</ele>
        <time>2020-03-02T13:09:07Z</time>
      </trkpt>
      <trkpt lat="43.58272" lon="5.06892">
        <ele>76.8</ele>
        <time>2020-03-02T13:09:24Z</time>
      </trkpt>
      <trkpt lat="43.58255" lon="5.069">
        <ele>77.2</ele>
        <time>2020-03-02T13:09:46Z</time>
      </trkpt>
      <trkpt lat="43.58238" lon="5.06908">
        <ele>77.4</ele>
        <time>2020-03-02T13:10:02Z</time>
      </trkpt>
      <trkpt lat="43.5822" lon="5.06918">
        <ele>77.7</ele>
        <time>2020-03-02T13:10:19Z</time>
      </trkpt>
      <trkpt lat="43.58202" lon="5.0692">
        <ele>77.6</ele>
        <time>2020-03-02T13:10:36Z</time>
      </trkpt>
      <trkpt lat="43.58185" lon="5.06923">
        <ele>77.4</ele>
        <time>2020-03-02T13:11:05Z</time>
      </trkpt>
      <trkpt lat="43.58167" lon="5.06928">
        <ele>77.4</ele>
        <time>2020-03-02T13:11:26Z</time>
      </trkpt>
      <trkpt lat="43.5815" lon="5.06939">
        <ele>77.4</ele>
        <time>2020-03-02T13:11:51Z</time>
      </trkpt>
      <trkpt lat="43.58135" lon="5.06954">
        <ele>77.6</ele>
        <time>2020-03-02T13:12:08Z</time>
      </trkpt>
      <trkpt lat="43.58119" lon="5.06968">
        <ele>77.7</ele>
        <time>2020-03-02T13:12:26Z</time>
      </trkpt>
      <trkpt lat="43.58102" lon="5.06972">
        <ele>77.5</ele>
        <time>2020-03-02T13:12:42Z</time>
      </trkpt>
      <trkpt lat="43.58084" lon="5.06978">
        <ele>77.2</ele>
        <time>2020-03-02T13:12:58Z</time>
      </trkpt>
      <trkpt lat="43.58066" lon="5.0698">
        <ele>76.3</ele>
        <time>2020-03-02T13:13:15Z</time>
      </trkpt>
      <trkpt lat="43.58048" lon="5.06986">
        <ele>75.5</ele>
        <time>2020-03-02T13:13:28Z</time>
      </trkpt>
      <trkpt lat="43.58031" lon="5.06996">
        <ele>74.7</ele>
        <time>2020-03-02T13:13:43Z</time>
      </trkpt>
      <trkpt lat="43.58014" lon="5.07009">
        <ele>74.1</ele>
        <time>2020-03-02T13:13:59Z</time>
      </trkpt>
      <trkpt lat="43.58001" lon="5.07003">
        <ele>73.2</ele>
        <time>2020-03-02T13:14:30Z</time>
      </trkpt>
      <trkpt lat="43.57996" lon="5.06979">
        <ele>72.6</ele>
        <time>2020-03-02T13:14:45Z</time>
      </trkpt>
      <trkpt lat="43.57991" lon="5.06955">
        <ele>72.3</ele>
        <time>2020-03-02T13:15:02Z</time>
      </trkpt>
      <trkpt lat="43.57986" lon="5.06931">
        <ele>71.9</ele>
        <time>2020-03-02T13:15:19Z</time>
      </trkpt>
      <trkpt lat="43.5798" lon="5.06907">
        <ele>72.2</ele>
        <time>2020-03-02T13:15:36Z</time>
      </trkpt>
      <trkpt lat="43.57974" lon="5.06882">
        <ele>73.6</ele>
        <time>2020-03-02T13:15:52Z</time>
      </trkpt>
      <trkpt lat="43.57968" lon="5.06857">
        <ele>75</ele>
        <time>2020-03-02T13:16:08Z</time>
      </trkpt>
      <trkpt lat="43.57961" lon="5.06834">
        <ele>76.4</ele>
        <time>2020-03-02T13:16:24Z</time>
      </trkpt>
      <trkpt lat="43.57957" lon="5.0681">
        <ele>78.4</ele>
        <time>2020-03-02T13:16:41Z</time>
      </trkpt>
      <trkpt lat="43.57953" lon="5.06784">
        <ele>80.6</ele>
        <time>2020-03-02T13:16:59Z</time>
      </trkpt>
      <trkpt lat="43.57953" lon="5.06759">
        <ele>82.6</ele>
        <time>2020-03-02T13:17:18Z</time>
      </trkpt>
      <trkpt lat="43.57943" lon="5.06739">
        <ele>85.1</ele>
        <time>2020-03-02T13:17:38Z</time>
      </trkpt>
      <trkpt lat="43.57926" lon="5.06729">
        <ele>87.2</ele>
        <time>2020-03-02T13:18:01Z</time>
      </trkpt>
      <trkpt lat="43.57908" lon="5.06729">
        <ele>88.1</ele>
        <time>2020-03-02T13:18:17Z</time>
      </trkpt>
      <trkpt lat="43.5789" lon="5.06732">
        <ele>88.6</ele>
        <time>2020-03-02T13:18:37Z</time>
      </trkpt>
      <trkpt lat="43.57872" lon="5.06739">
        <ele>88.7</ele>
        <time>2020-03-02T13:18:51Z</time>
      </trkpt>
      <trkpt lat="43.57855" lon="5.06744">
        <ele>88.8</ele>
        <time>2020-03-02T13:19:07Z</time>
      </trkpt>
      <trkpt lat="43.57838" lon="5.06745">
        <ele>89.4</ele>
        <time>2020-03-02T13:19:44Z</time>
      </trkpt>
      <trkpt lat="43.57821" lon="5.06746">
        <ele>89.8</ele>
        <time>2020-03-02T13:20:01Z</time>
      </trkpt>
      <trkpt lat="43.57803" lon="5.06741">
        <ele>90.8</ele>
        <time>2020-03-02T13:20:33Z</time>
      </trkpt>
      <trkpt lat="43.57785" lon="5.06739">
        <ele>91.5</ele>
        <time>2020-03-02T13:20:50Z</time>
      </trkpt>
      <trkpt lat="43.57766" lon="5.0674">
        <ele>91.7</ele>
        <time>2020-03-02T13:21:07Z</time>
      </trkpt>
      <trkpt lat="43.57748" lon="5.06744">
        <ele>91.8</ele>
        <time>2020-03-02T13:21:25Z</time>
      </trkpt>
      <trkpt lat="43.5773" lon="5.06749">
        <ele>92.6</ele>
        <time>2020-03-02T13:21:42Z</time>
      </trkpt>
      <trkpt lat="43.57712" lon="5.06743">
        <ele>94.5</ele>
        <time>2020-03-02T13:22:01Z</time>
      </trkpt>
      <trkpt lat="43.57695" lon="5.06739">
        <ele>96.3</ele>
        <time>2020-03-02T13:22:19Z</time>
      </trkpt>
      <trkpt lat="43.57676" lon="5.06738">
        <ele>97.7</ele>
        <time>2020-03-02T13:22:32Z</time>
      </trkpt>
      <trkpt lat="43.57658" lon="5.06739">
        <ele>98.5</ele>
        <time>2020-03-02T13:22:51Z</time>
      </trkpt>
      <trkpt lat="43.57641" lon="5.06748">
        <ele>98.1</ele>
        <time>2020-03-02T13:23:07Z</time>
      </trkpt>
      <trkpt lat="43.57626" lon="5.06763">
        <ele>96.8</ele>
        <time>2020-03-02T13:23:24Z</time>
      </trkpt>
      <trkpt lat="43.57608" lon="5.06767">
        <ele>97.1</ele>
        <time>2020-03-02T13:23:53Z</time>
      </trkpt>
      <trkpt lat="43.57589" lon="5.06768">
        <ele>97.8</ele>
        <time>2020-03-02T13:24:13Z</time>
      </trkpt>
      <trkpt lat="43.57571" lon="5.06774">
        <ele>98</ele>
        <time>2020-03-02T13:24:27Z</time>
      </trkpt>
      <trkpt lat="43.57553" lon="5.06775">
        <ele>98.8</ele>
        <time>2020-03-02T13:24:41Z</time>
      </trkpt>
      <trkpt lat="43.57535" lon="5.06771">
        <ele>99.9</ele>
        <time>2020-03-02T13:24:57Z</time>
      </trkpt>
      <trkpt lat="43.57517" lon="5.06767">
        <ele>100.9</ele>
        <time>2020-03-02T13:25:13Z</time>
      </trkpt>
      <trkpt lat="43.575" lon="5.06773">
        <ele>101.4</ele>
        <time>2020-03-02T13:25:30Z</time>
      </trkpt>
      <trkpt lat="43.57485" lon="5.06786">
        <ele>101.4</ele>
        <time>2020-03-02T13:25:50Z</time>
      </trkpt>
      <trkpt lat="43.57471" lon="5.06802">
        <ele>101.4</ele>
        <time>2020-03-02T13:26:07Z</time>
      </trkpt>
      <trkpt lat="43.57454" lon="5.06812">
        <ele>101.7</ele>
        <time>2020-03-02T13:26:23Z</time>
      </trkpt>
      <trkpt lat="43.57442" lon="5.06831">
        <ele>102.1</ele>
        <time>2020-03-02T13:26:40Z</time>
      </trkpt>
      <trkpt lat="43.57428" lon="5.06849">
        <ele>101.7</ele>
        <time>2020-03-02T13:26:55Z</time>
      </trkpt>
      <trkpt lat="43.57412" lon="5.0686">
        <ele>101.6</ele>
        <time>2020-03-02T13:27:08Z</time>
      </trkpt>
      <trkpt lat="43.57395" lon="5.06869">
        <ele>101.2</ele>
        <time>2020-03-02T13:27:23Z</time>
      </trkpt>
      <trkpt lat="43.57378" lon="5.06879">
        <ele>100.9</ele>
        <time>2020-03-02T13:27:42Z</time>
      </trkpt>
      <trkpt lat="43.57359" lon="5.06886">
        <ele>101</ele>
        <time>2020-03-02T13:27:58Z</time>
      </trkpt>
      <trkpt lat="43.57342" lon="5.06892">
        <ele>101.3</ele>
        <time>2020-03-02T13:28:13Z</time>
      </trkpt>
      <trkpt lat="43.57324" lon="5.06901">
        <ele>101.1</ele>
        <time>2020-03-02T13:28:29Z</time>
      </trkpt>
      <trkpt lat="43.57306" lon="5.06908">
        <ele>100.3</ele>
        <time>2020-03-02T13:28:49Z</time>
      </trkpt>
      <trkpt lat="43.57288" lon="5.06913">
        <ele>99.3</ele>
        <time>2020-03-02T13:29:05Z</time>
      </trkpt>
      <trkpt lat="43.57272" lon="5.06925">
        <ele>97.5</ele>
        <time>2020-03-02T13:29:23Z</time>
      </trkpt>
      <trkpt lat="43.57254" lon="5.06933">
        <ele>95.8</ele>
        <time>2020-03-02T13:29:42Z</time>
      </trkpt>
      <trkpt lat="43.57242" lon="5.06938">
        <ele>95.5</ele>
        <time>2020-03-02T13:30:15Z</time>
      </trkpt>
      <trkpt lat="43.57223" lon="5.06941">
        <ele>96.1</ele>
        <time>2020-03-02T13:30:32Z</time>
      </trkpt>
      <trkpt lat="43.57206" lon="5.06936">
        <ele>97.2</ele>
        <time>2020-03-02T13:30:49Z</time>
      </trkpt>
      <trkpt lat="43.57187" lon="5.06935">
        <ele>98.1</ele>
        <time>2020-03-02T13:31:10Z</time>
      </trkpt>
      <trkpt lat="43.57169" lon="5.06931">
        <ele>99.1</ele>
        <time>2020-03-02T13:31:27Z</time>
      </trkpt>
      <trkpt lat="43.5715" lon="5.06926">
        <ele>99.4</ele>
        <time>2020-03-02T13:31:42Z</time>
      </trkpt>
      <trkpt lat="43.57131" lon="5.06924">
        <ele>99.6</ele>
        <time>2020-03-02T13:31:58Z</time>
      </trkpt>
      <trkpt lat="43.57112" lon="5.06923">
        <ele>99.7</ele>
        <time>2020-03-02T13:32:15Z</time>
      </trkpt>
      <trkpt lat="43.57093" lon="5.06921">
        <ele>99.8</ele>
        <time>2020-03-02T13:32:33Z</time>
      </trkpt>
      <trkpt lat="43.57075" lon="5.06918">
        <ele>100.1</ele>
        <time>2020-03-02T13:32:52Z</time>
      </trkpt>
      <trkpt lat="43.57057" lon="5.06914">
        <ele>100.7</ele>
        <time>2020-03-02T13:33:06Z</time>
      </trkpt>
      <trkpt lat="43.57039" lon="5.06915">
        <ele>101.1</ele>
        <time>2020-03-02T13:33:21Z</time>
      </trkpt>
      <trkpt lat="43.5702" lon="5.06917">
        <ele>101.5</ele>
        <time>2020-03-02T13:33:36Z</time>
      </trkpt>
      <trkpt lat="43.57002" lon="5.06915">
        <ele>101.9</ele>
        <time>2020-03-02T13:33:52Z</time>
      </trkpt>
      <trkpt lat="43.56983" lon="5.06913">
        <ele>101.3</ele>
        <time>2020-03-02T13:34:09Z</time>
      </trkpt>
      <trkpt lat="43.56964" lon="5.06912">
        <ele>100.6</ele>
        <time>2020-03-02T13:34:25Z</time>
      </trkpt>
      <trkpt lat="43.56946" lon="5.06912">
        <ele>99.9</ele>
        <time>2020-03-02T13:34:39Z</time>
      </trkpt>
      <trkpt lat="43.56927" lon="5.06907">
        <ele>99.1</ele>
        <time>2020-03-02T13:34:56Z</time>
      </trkpt>
      <trkpt lat="43.56921" lon="5.06904">
        <ele>98.7</ele>
        <time>2020-03-02T13:37:12Z</time>
      </trkpt>
      <trkpt lat="43.56904" lon="5.06913">
        <ele>98.9</ele>
        <time>2020-03-02T13:37:46Z</time>
      </trkpt>
      <trkpt lat="43.56886" lon="5.06924">
        <ele>99.2</ele>
        <time>2020-03-02T13:38:06Z</time>
      </trkpt>
      <trkpt lat="43.56869" lon="5.06933">
        <ele>99.5</ele>
        <time>2020-03-02T13:38:25Z</time>
      </trkpt>
      <trkpt lat="43.56853" lon="5.06946">
        <ele>100</ele>
        <time>2020-03-02T13:38:45Z</time>
      </trkpt>
      <trkpt lat="43.56836" lon="5.06955">
        <ele>100.4</ele>
        <time>2020-03-02T13:39:05Z</time>
      </trkpt>
      <trkpt lat="43.5682" lon="5.06967">
        <ele>100.7</ele>
        <time>2020-03-02T13:39:24Z</time>
      </trkpt>
      <trkpt lat="43.56803" lon="5.06976">
        <ele>100.9</ele>
        <time>2020-03-02T13:39:39Z</time>
      </trkpt>
      <trkpt lat="43.56787" lon="5.06988">
        <ele>101.1</ele>
        <time>2020-03-02T13:39:57Z</time>
      </trkpt>
      <trkpt lat="43.5677" lon="5.07">
        <ele>101.2</ele>
        <time>2020-03-02T13:40:13Z</time>
      </trkpt>
      <trkpt lat="43.56754" lon="5.07012">
        <ele>101.2</ele>
        <time>2020-03-02T13:40:30Z</time>
      </trkpt>
      <trkpt lat="43.56739" lon="5.07026">
        <ele>101.4</ele>
        <time>2020-03-02T13:40:49Z</time>
      </trkpt>
      <trkpt lat="43.56721" lon="5.0703">
        <ele>101.5</ele>
        <time>2020-03-02T13:41:30Z</time>
      </trkpt>
      <trkpt lat="43.56703" lon="5.07035">
        <ele>101.7</ele>
        <time>2020-03-02T13:41:46Z</time>
      </trkpt>
      <trkpt lat="43.56686" lon="5.07044">
        <ele>101.9</ele>
        <time>2020-03-02T13:42:01Z</time>
      </trkpt>
      <trkpt lat="43.56674" lon="5.0706">
        <ele>102.4</ele>
        <time>2020-03-02T13:42:25Z</time>
      </trkpt>
      <trkpt lat="43.56662" lon="5.07078">
        <ele>103</ele>
        <time>2020-03-02T13:42:43Z</time>
      </trkpt>
      <trkpt lat="43.56646" lon="5.0709">
        <ele>103.8</ele>
        <time>2020-03-02T13:43:01Z</time>
      </trkpt>
      <trkpt lat="43.56627" lon="5.07088">
        <ele>104.1</ele>
        <time>2020-03-02T13:43:18Z</time>
      </trkpt>
      <trkpt lat="43.5661" lon="5.07081">
        <ele>104.3</ele>
        <time>2020-03-02T13:43:35Z</time>
      </trkpt>
      <trkpt lat="43.56591" lon="5.0708">
        <ele>104.6</ele>
        <time>2020-03-02T13:43:52Z</time>
      </trkpt>
      <trkpt lat="43.56573" lon="5.07075">
        <ele>104.4</ele>
        <time>2020-03-02T13:44:08Z</time>
      </trkpt>
      <trkpt lat="43.56554" lon="5.07074">
        <ele>104.1</ele>
        <time>2020-03-02T13:44:24Z</time>
      </trkpt>
      <trkpt lat="43.5654" lon="5.07079">
        <ele>104.2</ele>
        <time>2020-03-02T13:45:03Z</time>
      </trkpt>
      <trkpt lat="43.56537" lon="5.07083">
        <ele>104.4</ele>
        <time>2020-03-02T13:45:38Z</time>
      </trkpt>
      <trkpt lat="43.56537" lon="5.07109">
        <ele>105.6</ele>
        <time>2020-03-02T13:45:55Z</time>
      </trkpt>
      <trkpt lat="43.56534" lon="5.07134">
        <ele>106.7</ele>
        <time>2020-03-02T13:46:12Z</time>
      </trkpt>
      <trkpt lat="43.56535" lon="5.0716">
        <ele>107.9</ele>
        <time>2020-03-02T13:46:30Z</time>
      </trkpt>
      <trkpt lat="43.56535" lon="5.07186">
        <ele>105.3</ele>
        <time>2020-03-02T13:46:48Z</time>
      </trkpt>
      <trkpt lat="43.56532" lon="5.07209">
        <ele>101.7</ele>
        <time>2020-03-02T13:47:14Z</time>
      </trkpt>
      <trkpt lat="43.56515" lon="5.07215">
        <ele>100.2</ele>
        <time>2020-03-02T13:47:28Z</time>
      </trkpt>
      <trkpt lat="43.56497" lon="5.07212">
        <ele>100.4</ele>
        <time>2020-03-02T13:47:43Z</time>
      </trkpt>
      <trkpt lat="43.56479" lon="5.07209">
        <ele>102</ele>
        <time>2020-03-02T13:47:59Z</time>
      </trkpt>
      <trkpt lat="43.5646" lon="5.0721">
        <ele>102.8</ele>
        <time>2020-03-02T13:48:15Z</time>
      </trkpt>
      <trkpt lat="43.56442" lon="5.07213">
        <ele>103.3</ele>
        <time>2020-03-02T13:48:34Z</time>
      </trkpt>
      <trkpt lat="43.56423" lon="5.07212">
        <ele>104.5</ele>
        <time>2020-03-02T13:48:50Z</time>
      </trkpt>
      <trkpt lat="43.56405" lon="5.07212">
        <ele>105.3</ele>
        <time>2020-03-02T13:49:07Z</time>
      </trkpt>
      <trkpt lat="43.56387" lon="5.07218">
        <ele>104.8</ele>
        <time>2020-03-02T13:49:30Z</time>
      </trkpt>
      <trkpt lat="43.56369" lon="5.07222">
        <ele>105</ele>
        <time>2020-03-02T13:49:47Z</time>
      </trkpt>
      <trkpt lat="43.5636" lon="5.0722">
        <ele>105.6</ele>
        <time>2020-03-02T13:52:39Z</time>
      </trkpt>
      <trkpt lat="43.56344" lon="5.0723">
        <ele>105</ele>
        <time>2020-03-02T13:53:20Z</time>
      </trkpt>
      <trkpt lat="43.56326" lon="5.07233">
        <ele>105.8</ele>
        <time>2020-03-02T13:53:36Z</time>
      </trkpt>
      <trkpt lat="43.5631" lon="5.07239">
        <ele>106.9</ele>
        <time>2020-03-02T13:53:56Z</time>
      </trkpt>
      <trkpt lat="43.56294" lon="5.07244">
        <ele>108.6</ele>
        <time>2020-03-02T13:54:24Z</time>
      </trkpt>
      <trkpt lat="43.56276" lon="5.07247">
        <ele>110.7</ele>
        <time>2020-03-02T13:54:47Z</time>
      </trkpt>
      <trkpt lat="43.56258" lon="5.07257">
        <ele>111</ele>
        <time>2020-03-02T13:55:04Z</time>
      </trkpt>
      <trkpt lat="43.56242" lon="5.0727">
        <ele>108.7</ele>
        <time>2020-03-02T13:55:20Z</time>
      </trkpt>
      <trkpt lat="43.56225" lon="5.0728">
        <ele>106.8</ele>
        <time>2020-03-02T13:55:35Z</time>
      </trkpt>
      <trkpt lat="43.56208" lon="5.07288">
        <ele>106.1</ele>
        <time>2020-03-02T13:55:57Z</time>
      </trkpt>
      <trkpt lat="43.5619" lon="5.07296">
        <ele>105.8</ele>
        <time>2020-03-02T13:56:13Z</time>
      </trkpt>
      <trkpt lat="43.56172" lon="5.07302">
        <ele>106.3</ele>
        <time>2020-03-02T13:56:28Z</time>
      </trkpt>
      <trkpt lat="43.56154" lon="5.07306">
        <ele>104.5</ele>
        <time>2020-03-02T13:56:43Z</time>
      </trkpt>
      <trkpt lat="43.56136" lon="5.07307">
        <ele>101.8</ele>
        <time>2020-03-02T13:57:09Z</time>
      </trkpt>
      <trkpt lat="43.56119" lon="5.07299">
        <ele>100.1</ele>
        <time>2020-03-02T13:57:33Z</time>
      </trkpt>
      <trkpt lat="43.5611" lon="5.07279">
        <ele>99.9</ele>
        <time>2020-03-02T13:58:20Z</time>
      </trkpt>
      <trkpt lat="43.56098" lon="5.07262">
        <ele>98.5</ele>
        <time>2020-03-02T13:58:44Z</time>
      </trkpt>
      <trkpt lat="43.56109" lon="5.07248">
        <ele>100.9</ele>
        <time>2020-03-02T14:01:51Z</time>
      </trkpt>
      <trkpt lat="43.56118" lon="5.07227">
        <ele>99.4</ele>
        <time>2020-03-02T14:02:12Z</time>
      </trkpt>
      <trkpt lat="43.56134" lon="5.07213">
        <ele>100.7</ele>
        <time>2020-03-02T14:02:29Z</time>
      </trkpt>
      <trkpt lat="43.5615" lon="5.07206">
        <ele>103.3</ele>
        <time>2020-03-02T14:04:59Z</time>
      </trkpt>
      <trkpt lat="43.56165" lon="5.0719">
        <ele>104.8</ele>
        <time>2020-03-02T14:05:15Z</time>
      </trkpt>
      <trkpt lat="43.56181" lon="5.07176">
        <ele>104.7</ele>
        <time>2020-03-02T14:05:31Z</time>
      </trkpt>
      <trkpt lat="43.56198" lon="5.07166">
        <ele>105.7</ele>
        <time>2020-03-02T14:05:46Z</time>
      </trkpt>
      <trkpt lat="43.56208" lon="5.07162">
        <ele>106</ele>
        <time>2020-03-02T14:06:26Z</time>
      </trkpt>
      <trkpt lat="43.56203" lon="5.0716">
        <ele>104.9</ele>
        <time>2020-03-02T14:07:25Z</time>
      </trkpt>
      <trkpt lat="43.56188" lon="5.07165">
        <ele>104.1</ele>
        <time>2020-03-02T14:09:55Z</time>
      </trkpt>
      <trkpt lat="43.56172" lon="5.07176">
        <ele>103.9</ele>
        <time>2020-03-02T14:10:13Z</time>
      </trkpt>
      <trkpt lat="43.56155" lon="5.07181">
        <ele>101</ele>
        <time>2020-03-02T14:11:04Z</time>
      </trkpt>
      <trkpt lat="43.56138" lon="5.07187">
        <ele>97.5</ele>
        <time>2020-03-02T14:11:20Z</time>
      </trkpt>
      <trkpt lat="43.5612" lon="5.07191">
        <ele>93.7</ele>
        <time>2020-03-02T14:11:35Z</time>
      </trkpt>
      <trkpt lat="43.56103" lon="5.072">
        <ele>91.1</ele>
        <time>2020-03-02T14:12:05Z</time>
      </trkpt>
      <trkpt lat="43.56087" lon="5.0721">
        <ele>89.1</ele>
        <time>2020-03-02T14:13:34Z</time>
      </trkpt>
      <trkpt lat="43.56069" lon="5.07217">
        <ele>86</ele>
        <time>2020-03-02T14:13:55Z</time>
      </trkpt>
      <trkpt lat="43.56053" lon="5.0723">
        <ele>84</ele>
        <time>2020-03-02T14:14:21Z</time>
      </trkpt>
      <trkpt lat="43.56039" lon="5.07245">
        <ele>82</ele>
        <time>2020-03-02T14:14:41Z</time>
      </trkpt>
      <trkpt lat="43.56033" lon="5.07268">
        <ele>80.9</ele>
        <time>2020-03-02T14:16:22Z</time>
      </trkpt>
      <trkpt lat="43.56027" lon="5.07286">
        <ele>79.5</ele>
        <time>2020-03-02T14:17:24Z</time>
      </trkpt>
      <trkpt lat="43.56032" lon="5.07263">
        <ele>80.7</ele>
        <time>2020-03-02T14:17:45Z</time>
      </trkpt>
      <trkpt lat="43.56035" lon="5.07263">
        <ele>81.6</ele>
        <time>2020-03-02T14:19:35Z</time>
      </trkpt>
      <trkpt lat="43.56025" lon="5.07284">
        <ele>78.8</ele>
        <time>2020-03-02T14:20:01Z</time>
      </trkpt>
      <trkpt lat="43.56022" lon="5.0731">
        <ele>78.4</ele>
        <time>2020-03-02T14:20:23Z</time>
      </trkpt>
      <trkpt lat="43.5602" lon="5.07334">
        <ele>77.9</ele>
        <time>2020-03-02T14:20:53Z</time>
      </trkpt>
      <trkpt lat="43.5601" lon="5.07334">
        <ele>75.4</ele>
        <time>2020-03-02T14:23:59Z</time>
      </trkpt>
      <trkpt lat="43.56008" lon="5.07326">
        <ele>74.9</ele>
        <time>2020-03-02T14:28:20Z</time>
      </trkpt>
      <trkpt lat="43.56007" lon="5.07301">
        <ele>74.1</ele>
        <time>2020-03-02T14:29:13Z</time>
      </trkpt>
      <trkpt lat="43.56005" lon="5.07277">
        <ele>73</ele>
        <time>2020-03-02T14:30:31Z</time>
      </trkpt>
      <trkpt lat="43.56013" lon="5.07255">
        <ele>75</ele>
        <time>2020-03-02T14:30:54Z</time>
      </trkpt>
      <trkpt lat="43.56025" lon="5.07235">
        <ele>76.8</ele>
        <time>2020-03-02T14:31:14Z</time>
      </trkpt>
      <trkpt lat="43.56035" lon="5.07216">
        <ele>77.4</ele>
        <time>2020-03-02T14:31:31Z</time>
      </trkpt>
      <trkpt lat="43.56048" lon="5.07197">
        <ele>77.9</ele>
        <time>2020-03-02T14:31:49Z</time>
      </trkpt>
      <trkpt lat="43.5606" lon="5.07178">
        <ele>77.5</ele>
        <time>2020-03-02T14:32:08Z</time>
      </trkpt>
      <trkpt lat="43.56073" lon="5.0716">
        <ele>77</ele>
        <time>2020-03-02T14:32:27Z</time>
      </trkpt>
      <trkpt lat="43.56089" lon="5.07147">
        <ele>77.5</ele>
        <time>2020-03-02T14:32:46Z</time>
      </trkpt>
      <trkpt lat="43.56105" lon="5.07138">
        <ele>79.8</ele>
        <time>2020-03-02T14:33:05Z</time>
      </trkpt>
      <trkpt lat="43.56123" lon="5.07132">
        <ele>82.7</ele>
        <time>2020-03-02T14:33:25Z</time>
      </trkpt>
      <trkpt lat="43.56141" lon="5.07126">
        <ele>85.3</ele>
        <time>2020-03-02T14:33:46Z</time>
      </trkpt>
      <trkpt lat="43.56159" lon="5.0712">
        <ele>88</ele>
        <time>2020-03-02T14:34:08Z</time>
      </trkpt>
      <trkpt lat="43.56177" lon="5.07115">
        <ele>90.2</ele>
        <time>2020-03-02T14:34:29Z</time>
      </trkpt>
      <trkpt lat="43.56195" lon="5.07107">
        <ele>91.8</ele>
        <time>2020-03-02T14:35:09Z</time>
      </trkpt>
      <trkpt lat="43.56203" lon="5.07089">
        <ele>89.5</ele>
        <time>2020-03-02T14:36:13Z</time>
      </trkpt>
      <trkpt lat="43.56207" lon="5.07065">
        <ele>84.9</ele>
        <time>2020-03-02T14:36:52Z</time>
      </trkpt>
      <trkpt lat="43.56211" lon="5.0704">
        <ele>80.3</ele>
        <time>2020-03-02T14:37:21Z</time>
      </trkpt>
      <trkpt lat="43.56219" lon="5.07018">
        <ele>77.3</ele>
        <time>2020-03-02T14:38:01Z</time>
      </trkpt>
      <trkpt lat="43.56224" lon="5.06994">
        <ele>73.5</ele>
        <time>2020-03-02T14:38:36Z</time>
      </trkpt>
      <trkpt lat="43.56232" lon="5.06972">
        <ele>71.7</ele>
        <time>2020-03-02T14:39:07Z</time>
      </trkpt>
      <trkpt lat="43.56239" lon="5.06949">
        <ele>68.9</ele>
        <time>2020-03-02T14:39:24Z</time>
      </trkpt>
      <trkpt lat="43.56245" lon="5.06925">
        <ele>65.9</ele>
        <time>2020-03-02T14:39:52Z</time>
      </trkpt>
      <trkpt lat="43.56249" lon="5.06901">
        <ele>62.4</ele>
        <time>2020-03-02T14:40:22Z</time>
      </trkpt>
      <trkpt lat="43.56245" lon="5.06878">
        <ele>57.8</ele>
        <time>2020-03-02T14:40:43Z</time>
      </trkpt>
      <trkpt lat="43.56239" lon="5.06857">
        <ele>53.8</ele>
        <time>2020-03-02T14:41:08Z</time>
      </trkpt>
      <trkpt lat="43.56237" lon="5.06832">
        <ele>49.8</ele>
        <time>2020-03-02T14:41:25Z</time>
      </trkpt>
      <trkpt lat="43.56239" lon="5.06807">
        <ele>47.7</ele>
        <time>2020-03-02T14:41:50Z</time>
      </trkpt>
      <trkpt lat="43.56244" lon="5.06783">
        <ele>45.9</ele>
        <time>2020-03-02T14:42:07Z</time>
      </trkpt>
      <trkpt lat="43.56252" lon="5.0676">
        <ele>44.2</ele>
        <time>2020-03-02T14:42:24Z</time>
      </trkpt>
      <trkpt lat="43.56259" lon="5.06737">
        <ele>42.9</ele>
        <time>2020-03-02T14:42:41Z</time>
      </trkpt>
      <trkpt lat="43.5627" lon="5.06718">
        <ele>41.9</ele>
        <time>2020-03-02T14:43:03Z</time>
      </trkpt>
      <trkpt lat="43.56271" lon="5.06694">
        <ele>39.4</ele>
        <time>2020-03-02T14:44:28Z</time>
      </trkpt>
      <trkpt lat="43.56274" lon="5.0667">
        <ele>37</ele>
        <time>2020-03-02T14:45:02Z</time>
      </trkpt>
      <trkpt lat="43.5628" lon="5.06647">
        <ele>35.3</ele>
        <time>2020-03-02T14:45:18Z</time>
      </trkpt>
      <trkpt lat="43.56286" lon="5.06624">
        <ele>33.6</ele>
        <time>2020-03-02T14:45:35Z</time>
      </trkpt>
      <trkpt lat="43.56285" lon="5.06602">
        <ele>32</ele>
        <time>2020-03-02T14:46:22Z</time>
      </trkpt>
      <trkpt lat="43.56286" lon="5.06577">
        <ele>30.6</ele>
        <time>2020-03-02T14:46:36Z</time>
      </trkpt>
      <trkpt lat="43.56287" lon="5.06552">
        <ele>30.6</ele>
        <time>2020-03-02T14:46:51Z</time>
      </trkpt>
      <trkpt lat="43.56286" lon="5.0653">
        <ele>30.6</ele>
        <time>2020-03-02T14:47:31Z</time>
      </trkpt>
      <trkpt lat="43.56289" lon="5.06506">
        <ele>30.5</ele>
        <time>2020-03-02T14:47:46Z</time>
      </trkpt>
      <trkpt lat="43.56284" lon="5.06481">
        <ele>30.6</ele>
        <time>2020-03-02T14:47:58Z</time>
      </trkpt>
      <trkpt lat="43.56278" lon="5.06456">
        <ele>30.8</ele>
        <time>2020-03-02T14:48:11Z</time>
      </trkpt>
      <trkpt lat="43.56271" lon="5.06433">
        <ele>31.1</ele>
        <time>2020-03-02T14:48:24Z</time>
      </trkpt>
      <trkpt lat="43.56266" lon="5.0641">
        <ele>32.5</ele>
        <time>2020-03-02T14:48:37Z</time>
      </trkpt>
      <trkpt lat="43.56258" lon="5.06386">
        <ele>36.6</ele>
        <time>2020-03-02T14:48:49Z</time>
      </trkpt>
      <trkpt lat="43.56249" lon="5.06363">
        <ele>41.1</ele>
        <time>2020-03-02T14:49:03Z</time>
      </trkpt>
      <trkpt lat="43.56245" lon="5.06338">
        <ele>45.9</ele>
        <time>2020-03-02T14:49:17Z</time>
      </trkpt>
      <trkpt lat="43.5626" lon="5.06326">
        <ele>47.2</ele>
        <time>2020-03-02T14:49:32Z</time>
      </trkpt>
      <trkpt lat="43.56277" lon="5.06317">
        <ele>48.3</ele>
        <time>2020-03-02T14:49:48Z</time>
      </trkpt>
      <trkpt lat="43.56295" lon="5.06309">
        <ele>48.5</ele>
        <time>2020-03-02T14:50:03Z</time>
      </trkpt>
      <trkpt lat="43.56314" lon="5.06302">
        <ele>48.2</ele>
        <time>2020-03-02T14:50:14Z</time>
      </trkpt>
      <trkpt lat="43.56332" lon="5.06296">
        <ele>47.4</ele>
        <time>2020-03-02T14:50:32Z</time>
      </trkpt>
      <trkpt lat="43.56349" lon="5.06294">
        <ele>45.8</ele>
        <time>2020-03-02T14:51:09Z</time>
      </trkpt>
      <trkpt lat="43.56368" lon="5.06292">
        <ele>44.1</ele>
        <time>2020-03-02T14:51:28Z</time>
      </trkpt>
      <trkpt lat="43.56386" lon="5.06285">
        <ele>43.4</ele>
        <time>2020-03-02T14:51:40Z</time>
      </trkpt>
      <trkpt lat="43.56405" lon="5.06277">
        <ele>42.9</ele>
        <time>2020-03-02T14:51:52Z</time>
      </trkpt>
      <trkpt lat="43.56422" lon="5.06268">
        <ele>42.6</ele>
        <time>2020-03-02T14:52:06Z</time>
      </trkpt>
      <trkpt lat="43.56439" lon="5.0626">
        <ele>42.9</ele>
        <time>2020-03-02T14:52:22Z</time>
      </trkpt>
      <trkpt lat="43.56456" lon="5.06251">
        <ele>43.1</ele>
        <time>2020-03-02T14:52:37Z</time>
      </trkpt>
      <trkpt lat="43.56474" lon="5.06245">
        <ele>43</ele>
        <time>2020-03-02T14:52:56Z</time>
      </trkpt>
      <trkpt lat="43.56492" lon="5.06243">
        <ele>41.7</ele>
        <time>2020-03-02T14:53:13Z</time>
      </trkpt>
      <trkpt lat="43.56511" lon="5.06238">
        <ele>41.2</ele>
        <time>2020-03-02T14:53:28Z</time>
      </trkpt>
      <trkpt lat="43.56527" lon="5.06228">
        <ele>41.9</ele>
        <time>2020-03-02T14:53:51Z</time>
      </trkpt>
      <trkpt lat="43.56544" lon="5.06215">
        <ele>43</ele>
        <time>2020-03-02T14:54:07Z</time>
      </trkpt>
      <trkpt lat="43.56559" lon="5.06201">
        <ele>44.7</ele>
        <time>2020-03-02T14:54:23Z</time>
      </trkpt>
      <trkpt lat="43.56574" lon="5.06186">
        <ele>45.9</ele>
        <time>2020-03-02T14:54:42Z</time>
      </trkpt>
      <trkpt lat="43.5659" lon="5.06172">
        <ele>46.6</ele>
        <time>2020-03-02T14:55:02Z</time>
      </trkpt>
      <trkpt lat="43.56606" lon="5.06161">
        <ele>46.3</ele>
        <time>2020-03-02T14:55:26Z</time>
      </trkpt>
      <trkpt lat="43.56621" lon="5.06148">
        <ele>46.5</ele>
        <time>2020-03-02T14:55:46Z</time>
      </trkpt>
      <trkpt lat="43.56637" lon="5.06137">
        <ele>46.2</ele>
        <time>2020-03-02T14:56:02Z</time>
      </trkpt>
      <trkpt lat="43.56656" lon="5.06132">
        <ele>43.9</ele>
        <time>2020-03-02T14:56:23Z</time>
      </trkpt>
      <trkpt lat="43.56673" lon="5.06125">
        <ele>43.2</ele>
        <time>2020-03-02T14:56:40Z</time>
      </trkpt>
      <trkpt lat="43.56691" lon="5.06119">
        <ele>43.6</ele>
        <time>2020-03-02T14:56:55Z</time>
      </trkpt>
      <trkpt lat="43.56707" lon="5.0611">
        <ele>44.3</ele>
        <time>2020-03-02T14:57:11Z</time>
      </trkpt>
      <trkpt lat="43.56726" lon="5.06106">
        <ele>43.6</ele>
        <time>2020-03-02T14:57:28Z</time>
      </trkpt>
      <trkpt lat="43.56744" lon="5.06099">
        <ele>43.4</ele>
        <time>2020-03-02T14:57:45Z</time>
      </trkpt>
      <trkpt lat="43.56761" lon="5.06089">
        <ele>43.5</ele>
        <time>2020-03-02T14:58:05Z</time>
      </trkpt>
      <trkpt lat="43.56779" lon="5.06082">
        <ele>43.3</ele>
        <time>2020-03-02T14:58:20Z</time>
      </trkpt>
      <trkpt lat="43.56797" lon="5.06077">
        <ele>43.5</ele>
        <time>2020-03-02T14:58:36Z</time>
      </trkpt>
      <trkpt lat="43.56815" lon="5.06071">
        <ele>43.6</ele>
        <time>2020-03-02T14:58:53Z</time>
      </trkpt>
      <trkpt lat="43.56831" lon="5.06061">
        <ele>45</ele>
        <time>2020-03-02T14:59:11Z</time>
      </trkpt>
      <trkpt lat="43.56849" lon="5.06052">
        <ele>46.8</ele>
        <time>2020-03-02T14:59:29Z</time>
      </trkpt>
      <trkpt lat="43.56867" lon="5.06051">
        <ele>46.7</ele>
        <time>2020-03-02T14:59:49Z</time>
      </trkpt>
      <trkpt lat="43.56886" lon="5.06053">
        <ele>45.8</ele>
        <time>2020-03-02T15:00:15Z</time>
      </trkpt>
      <trkpt lat="43.56905" lon="5.06053">
        <ele>45.4</ele>
        <time>2020-03-02T15:00:34Z</time>
      </trkpt>
      <trkpt lat="43.56924" lon="5.06047">
        <ele>45.9</ele>
        <time>2020-03-02T15:00:49Z</time>
      </trkpt>
      <trkpt lat="43.56942" lon="5.06049">
        <ele>44.7</ele>
        <time>2020-03-02T15:01:13Z</time>
      </trkpt>
      <trkpt lat="43.5696" lon="5.06044">
        <ele>44.5</ele>
        <time>2020-03-02T15:01:29Z</time>
      </trkpt>
      <trkpt lat="43.56978" lon="5.06038">
        <ele>44.3</ele>
        <time>2020-03-02T15:01:44Z</time>
      </trkpt>
      <trkpt lat="43.56997" lon="5.06034">
        <ele>43.7</ele>
        <time>2020-03-02T15:02:01Z</time>
      </trkpt>
      <trkpt lat="43.57014" lon="5.06024">
        <ele>43.9</ele>
        <time>2020-03-02T15:02:16Z</time>
      </trkpt>
      <trkpt lat="43.57028" lon="5.06008">
        <ele>43.8</ele>
        <time>2020-03-02T15:02:39Z</time>
      </trkpt>
      <trkpt lat="43.57043" lon="5.05994">
        <ele>43.6</ele>
        <time>2020-03-02T15:02:52Z</time>
      </trkpt>
      <trkpt lat="43.57058" lon="5.05979">
        <ele>44.7</ele>
        <time>2020-03-02T15:03:07Z</time>
      </trkpt>
      <trkpt lat="43.57074" lon="5.05966">
        <ele>45.1</ele>
        <time>2020-03-02T15:03:24Z</time>
      </trkpt>
      <trkpt lat="43.57091" lon="5.05955">
        <ele>45.5</ele>
        <time>2020-03-02T15:03:49Z</time>
      </trkpt>
      <trkpt lat="43.5711" lon="5.05949">
        <ele>44.9</ele>
        <time>2020-03-02T15:04:05Z</time>
      </trkpt>
      <trkpt lat="43.57128" lon="5.05943">
        <ele>43.7</ele>
        <time>2020-03-02T15:04:22Z</time>
      </trkpt>
      <trkpt lat="43.57146" lon="5.05942">
        <ele>41.7</ele>
        <time>2020-03-02T15:04:42Z</time>
      </trkpt>
      <trkpt lat="43.57163" lon="5.05947">
        <ele>39.7</ele>
        <time>2020-03-02T15:04:57Z</time>
      </trkpt>
      <trkpt lat="43.57168" lon="5.05971">
        <ele>39.7</ele>
        <time>2020-03-02T15:05:17Z</time>
      </trkpt>
      <trkpt lat="43.57162" lon="5.05994">
        <ele>39.8</ele>
        <time>2020-03-02T15:05:35Z</time>
      </trkpt>
      <trkpt lat="43.5715" lon="5.06013">
        <ele>41.4</ele>
        <time>2020-03-02T15:05:53Z</time>
      </trkpt>
      <trkpt lat="43.57135" lon="5.06029">
        <ele>43</ele>
        <time>2020-03-02T15:06:09Z</time>
      </trkpt>
      <trkpt lat="43.57122" lon="5.06045">
        <ele>44.2</ele>
        <time>2020-03-02T15:06:29Z</time>
      </trkpt>
      <trkpt lat="43.57116" lon="5.06055">
        <ele>44.8</ele>
        <time>2020-03-02T15:08:19Z</time>
      </trkpt>
      <trkpt lat="43.57102" lon="5.0607">
        <ele>45.1</ele>
        <time>2020-03-02T15:08:36Z</time>
      </trkpt>
      <trkpt lat="43.57092" lon="5.06092">
        <ele>46.6</ele>
        <time>2020-03-02T15:08:54Z</time>
      </trkpt>
      <trkpt lat="43.57083" lon="5.06115">
        <ele>49.6</ele>
        <time>2020-03-02T15:09:12Z</time>
      </trkpt>
      <trkpt lat="43.57073" lon="5.06136">
        <ele>52.4</ele>
        <time>2020-03-02T15:09:30Z</time>
      </trkpt>
      <trkpt lat="43.57061" lon="5.06155">
        <ele>54.3</ele>
        <time>2020-03-02T15:09:51Z</time>
      </trkpt>
      <trkpt lat="43.57047" lon="5.06171">
        <ele>54.9</ele>
        <time>2020-03-02T15:10:10Z</time>
      </trkpt>
      <trkpt lat="43.57034" lon="5.0619">
        <ele>54.7</ele>
        <time>2020-03-02T15:10:26Z</time>
      </trkpt>
      <trkpt lat="43.57023" lon="5.06209">
        <ele>55</ele>
        <time>2020-03-02T15:10:52Z</time>
      </trkpt>
      <trkpt lat="43.5701" lon="5.06227">
        <ele>55.5</ele>
        <time>2020-03-02T15:11:17Z</time>
      </trkpt>
      <trkpt lat="43.56994" lon="5.06238">
        <ele>55.6</ele>
        <time>2020-03-02T15:11:38Z</time>
      </trkpt>
      <trkpt lat="43.5698" lon="5.06254">
        <ele>56.5</ele>
        <time>2020-03-02T15:11:54Z</time>
      </trkpt>
      <trkpt lat="43.56964" lon="5.06268">
        <ele>56.7</ele>
        <time>2020-03-02T15:12:13Z</time>
      </trkpt>
      <trkpt lat="43.5695" lon="5.06282">
        <ele>57</ele>
        <time>2020-03-02T15:12:28Z</time>
      </trkpt>
      <trkpt lat="43.56936" lon="5.06299">
        <ele>57.5</ele>
        <time>2020-03-02T15:12:43Z</time>
      </trkpt>
      <trkpt lat="43.56924" lon="5.06318">
        <ele>58.3</ele>
        <time>2020-03-02T15:12:58Z</time>
      </trkpt>
      <trkpt lat="43.56914" lon="5.06338">
        <ele>59</ele>
        <time>2020-03-02T15:13:15Z</time>
      </trkpt>
      <trkpt lat="43.56913" lon="5.06363">
        <ele>61</ele>
        <time>2020-03-02T15:13:33Z</time>
      </trkpt>
      <trkpt lat="43.56916" lon="5.06388">
        <ele>63.5</ele>
        <time>2020-03-02T15:13:49Z</time>
      </trkpt>
      <trkpt lat="43.56923" lon="5.06412">
        <ele>66.2</ele>
        <time>2020-03-02T15:14:10Z</time>
      </trkpt>
      <trkpt lat="43.56931" lon="5.06433">
        <ele>69.2</ele>
        <time>2020-03-02T15:14:35Z</time>
      </trkpt>
      <trkpt lat="43.56931" lon="5.06456">
        <ele>71.5</ele>
        <time>2020-03-02T15:15:58Z</time>
      </trkpt>
      <trkpt lat="43.56929" lon="5.06479">
        <ele>73.8</ele>
        <time>2020-03-02T15:16:35Z</time>
      </trkpt>
      <trkpt lat="43.56931" lon="5.06504">
        <ele>76.5</ele>
        <time>2020-03-02T15:16:57Z</time>
      </trkpt>
      <trkpt lat="43.56933" lon="5.06529">
        <ele>78.8</ele>
        <time>2020-03-02T15:17:20Z</time>
      </trkpt>
      <trkpt lat="43.56942" lon="5.06549">
        <ele>81.7</ele>
        <time>2020-03-02T15:17:53Z</time>
      </trkpt>
      <trkpt lat="43.56949" lon="5.06572">
        <ele>84.4</ele>
        <time>2020-03-02T15:18:11Z</time>
      </trkpt>
      <trkpt lat="43.5695" lon="5.06597">
        <ele>85.8</ele>
        <time>2020-03-02T15:18:29Z</time>
      </trkpt>
      <trkpt lat="43.56951" lon="5.06621">
        <ele>86.6</ele>
        <time>2020-03-02T15:18:47Z</time>
      </trkpt>
      <trkpt lat="43.56949" lon="5.06646">
        <ele>87.1</ele>
        <time>2020-03-02T15:19:03Z</time>
      </trkpt>
      <trkpt lat="43.56946" lon="5.0667">
        <ele>87.7</ele>
        <time>2020-03-02T15:19:24Z</time>
      </trkpt>
      <trkpt lat="43.56945" lon="5.06695">
        <ele>89.1</ele>
        <time>2020-03-02T15:19:41Z</time>
      </trkpt>
      <trkpt lat="43.56941" lon="5.0672">
        <ele>90.3</ele>
        <time>2020-03-02T15:19:59Z</time>
      </trkpt>
      <trkpt lat="43.56942" lon="5.06745">
        <ele>91.8</ele>
        <time>2020-03-02T15:20:24Z</time>
      </trkpt>
      <trkpt lat="43.56937" lon="5.06769">
        <ele>92.9</ele>
        <time>2020-03-02T15:20:42Z</time>
      </trkpt>
      <trkpt lat="43.56932" lon="5.06793">
        <ele>94.2</ele>
        <time>2020-03-02T15:20:59Z</time>
      </trkpt>
      <trkpt lat="43.56927" lon="5.06817">
        <ele>95.5</ele>
        <time>2020-03-02T15:21:16Z</time>
      </trkpt>
      <trkpt lat="43.56921" lon="5.06841">
        <ele>96.5</ele>
        <time>2020-03-02T15:21:36Z</time>
      </trkpt>
      <trkpt lat="43.5692" lon="5.06866">
        <ele>97.3</ele>
        <time>2020-03-02T15:22:23Z</time>
      </trkpt>
      <trkpt lat="43.56914" lon="5.06888">
        <ele>98</ele>
        <time>2020-03-02T15:22:51Z</time>
      </trkpt>
      <trkpt lat="43.56917" lon="5.06907">
        <ele>98.7</ele>
        <time>2020-03-02T15:23:25Z</time>
      </trkpt>
      <trkpt lat="43.56932" lon="5.06908">
        <ele>99.3</ele>
        <time>2020-03-02T15:26:03Z</time>
      </trkpt>
      <trkpt lat="43.56951" lon="5.0691">
        <ele>100.1</ele>
        <time>2020-03-02T15:26:22Z</time>
      </trkpt>
      <trkpt lat="43.56969" lon="5.06912">
        <ele>100.8</ele>
        <time>2020-03-02T15:26:40Z</time>
      </trkpt>
      <trkpt lat="43.56987" lon="5.06912">
        <ele>101.5</ele>
        <time>2020-03-02T15:26:59Z</time>
      </trkpt>
      <trkpt lat="43.57005" lon="5.06914">
        <ele>101.8</ele>
        <time>2020-03-02T15:27:16Z</time>
      </trkpt>
      <trkpt lat="43.57023" lon="5.06914">
        <ele>101.4</ele>
        <time>2020-03-02T15:27:32Z</time>
      </trkpt>
      <trkpt lat="43.57041" lon="5.06911">
        <ele>101</ele>
        <time>2020-03-02T15:27:49Z</time>
      </trkpt>
      <trkpt lat="43.57059" lon="5.06914">
        <ele>100.6</ele>
        <time>2020-03-02T15:28:07Z</time>
      </trkpt>
      <trkpt lat="43.57077" lon="5.06917">
        <ele>100.2</ele>
        <time>2020-03-02T15:28:22Z</time>
      </trkpt>
      <trkpt lat="43.57095" lon="5.06916">
        <ele>100</ele>
        <time>2020-03-02T15:28:38Z</time>
      </trkpt>
      <trkpt lat="43.57113" lon="5.0692">
        <ele>99.8</ele>
        <time>2020-03-02T15:28:54Z</time>
      </trkpt>
      <trkpt lat="43.57131" lon="5.06922">
        <ele>99.7</ele>
        <time>2020-03-02T15:29:09Z</time>
      </trkpt>
      <trkpt lat="43.57149" lon="5.06925">
        <ele>99.5</ele>
        <time>2020-03-02T15:29:26Z</time>
      </trkpt>
      <trkpt lat="43.57167" lon="5.06932">
        <ele>99.1</ele>
        <time>2020-03-02T15:29:43Z</time>
      </trkpt>
      <trkpt lat="43.57185" lon="5.06935">
        <ele>98.2</ele>
        <time>2020-03-02T15:30:00Z</time>
      </trkpt>
      <trkpt lat="43.57203" lon="5.06936">
        <ele>97.3</ele>
        <time>2020-03-02T15:30:16Z</time>
      </trkpt>
      <trkpt lat="43.57222" lon="5.06938">
        <ele>96.4</ele>
        <time>2020-03-02T15:30:33Z</time>
      </trkpt>
      <trkpt lat="43.5724" lon="5.06933">
        <ele>96.1</ele>
        <time>2020-03-02T15:30:50Z</time>
      </trkpt>
      <trkpt lat="43.57257" lon="5.06929">
        <ele>96.4</ele>
        <time>2020-03-02T15:31:07Z</time>
      </trkpt>
      <trkpt lat="43.57275" lon="5.06918">
        <ele>98.3</ele>
        <time>2020-03-02T15:31:26Z</time>
      </trkpt>
      <trkpt lat="43.57292" lon="5.06909">
        <ele>99.5</ele>
        <time>2020-03-02T15:31:45Z</time>
      </trkpt>
      <trkpt lat="43.57308" lon="5.069">
        <ele>100.3</ele>
        <time>2020-03-02T15:32:04Z</time>
      </trkpt>
      <trkpt lat="43.57327" lon="5.06895">
        <ele>101.2</ele>
        <time>2020-03-02T15:32:22Z</time>
      </trkpt>
      <trkpt lat="43.57343" lon="5.06885">
        <ele>101.2</ele>
        <time>2020-03-02T15:32:37Z</time>
      </trkpt>
      <trkpt lat="43.57361" lon="5.06879">
        <ele>101</ele>
        <time>2020-03-02T15:32:53Z</time>
      </trkpt>
      <trkpt lat="43.57379" lon="5.06871">
        <ele>101.1</ele>
        <time>2020-03-02T15:33:10Z</time>
      </trkpt>
      <trkpt lat="43.57395" lon="5.0686">
        <ele>101.4</ele>
        <time>2020-03-02T15:33:27Z</time>
      </trkpt>
      <trkpt lat="43.57412" lon="5.06848">
        <ele>102.2</ele>
        <time>2020-03-02T15:33:42Z</time>
      </trkpt>
      <trkpt lat="43.57427" lon="5.06834">
        <ele>102.6</ele>
        <time>2020-03-02T15:33:57Z</time>
      </trkpt>
      <trkpt lat="43.57439" lon="5.06817">
        <ele>102.2</ele>
        <time>2020-03-02T15:34:13Z</time>
      </trkpt>
      <trkpt lat="43.57455" lon="5.06804">
        <ele>101.8</ele>
        <time>2020-03-02T15:34:30Z</time>
      </trkpt>
      <trkpt lat="43.57472" lon="5.06793">
        <ele>101.5</ele>
        <time>2020-03-02T15:34:49Z</time>
      </trkpt>
      <trkpt lat="43.57486" lon="5.06778">
        <ele>101.5</ele>
        <time>2020-03-02T15:35:07Z</time>
      </trkpt>
      <trkpt lat="43.57503" lon="5.06768">
        <ele>101.4</ele>
        <time>2020-03-02T15:35:24Z</time>
      </trkpt>
      <trkpt lat="43.57521" lon="5.06763">
        <ele>100.9</ele>
        <time>2020-03-02T15:35:40Z</time>
      </trkpt>
      <trkpt lat="43.57539" lon="5.06769">
        <ele>99.9</ele>
        <time>2020-03-02T15:35:58Z</time>
      </trkpt>
      <trkpt lat="43.57557" lon="5.06771">
        <ele>98.9</ele>
        <time>2020-03-02T15:36:18Z</time>
      </trkpt>
      <trkpt lat="43.57575" lon="5.06764">
        <ele>98.8</ele>
        <time>2020-03-02T15:36:38Z</time>
      </trkpt>
      <trkpt lat="43.57593" lon="5.06762">
        <ele>98.4</ele>
        <time>2020-03-02T15:36:57Z</time>
      </trkpt>
      <trkpt lat="43.57611" lon="5.06759">
        <ele>97.9</ele>
        <time>2020-03-02T15:37:19Z</time>
      </trkpt>
      <trkpt lat="43.57627" lon="5.06747">
        <ele>98.7</ele>
        <time>2020-03-02T15:37:32Z</time>
      </trkpt>
      <trkpt lat="43.57645" lon="5.06739">
        <ele>99</ele>
        <time>2020-03-02T15:37:53Z</time>
      </trkpt>
      <trkpt lat="43.57663" lon="5.06736">
        <ele>98.8</ele>
        <time>2020-03-02T15:38:07Z</time>
      </trkpt>
      <trkpt lat="43.57681" lon="5.06733">
        <ele>97.9</ele>
        <time>2020-03-02T15:38:23Z</time>
      </trkpt>
      <trkpt lat="43.577" lon="5.06733">
        <ele>96.6</ele>
        <time>2020-03-02T15:38:41Z</time>
      </trkpt>
      <trkpt lat="43.57718" lon="5.06739">
        <ele>94.5</ele>
        <time>2020-03-02T15:38:57Z</time>
      </trkpt>
      <trkpt lat="43.57736" lon="5.06739">
        <ele>93.2</ele>
        <time>2020-03-02T15:39:35Z</time>
      </trkpt>
      <trkpt lat="43.57754" lon="5.06735">
        <ele>92.6</ele>
        <time>2020-03-02T15:39:54Z</time>
      </trkpt>
      <trkpt lat="43.57773" lon="5.06733">
        <ele>92.4</ele>
        <time>2020-03-02T15:40:15Z</time>
      </trkpt>
      <trkpt lat="43.57791" lon="5.06733">
        <ele>91.9</ele>
        <time>2020-03-02T15:40:32Z</time>
      </trkpt>
      <trkpt lat="43.57809" lon="5.06736">
        <ele>91.2</ele>
        <time>2020-03-02T15:40:51Z</time>
      </trkpt>
      <trkpt lat="43.57827" lon="5.06743">
        <ele>89.9</ele>
        <time>2020-03-02T15:41:07Z</time>
      </trkpt>
      <trkpt lat="43.57838" lon="5.06741">
        <ele>89.9</ele>
        <time>2020-03-02T15:41:40Z</time>
      </trkpt>
      <trkpt lat="43.57856" lon="5.06741">
        <ele>89.2</ele>
        <time>2020-03-02T15:42:05Z</time>
      </trkpt>
      <trkpt lat="43.57874" lon="5.06732">
        <ele>89.3</ele>
        <time>2020-03-02T15:42:19Z</time>
      </trkpt>
      <trkpt lat="43.57892" lon="5.06729">
        <ele>88.8</ele>
        <time>2020-03-02T15:42:53Z</time>
      </trkpt>
      <trkpt lat="43.57911" lon="5.06726">
        <ele>88.3</ele>
        <time>2020-03-02T15:43:09Z</time>
      </trkpt>
      <trkpt lat="43.5793" lon="5.06729">
        <ele>86.9</ele>
        <time>2020-03-02T15:43:23Z</time>
      </trkpt>
      <trkpt lat="43.57946" lon="5.06741">
        <ele>84.7</ele>
        <time>2020-03-02T15:43:39Z</time>
      </trkpt>
      <trkpt lat="43.57957" lon="5.06761">
        <ele>82.2</ele>
        <time>2020-03-02T15:43:53Z</time>
      </trkpt>
      <trkpt lat="43.57956" lon="5.06787">
        <ele>80.2</ele>
        <time>2020-03-02T15:44:09Z</time>
      </trkpt>
      <trkpt lat="43.57959" lon="5.06813">
        <ele>78</ele>
        <time>2020-03-02T15:44:25Z</time>
      </trkpt>
      <trkpt lat="43.57964" lon="5.06837">
        <ele>76.1</ele>
        <time>2020-03-02T15:44:40Z</time>
      </trkpt>
      <trkpt lat="43.57969" lon="5.06862">
        <ele>74.8</ele>
        <time>2020-03-02T15:44:56Z</time>
      </trkpt>
      <trkpt lat="43.57974" lon="5.06886">
        <ele>73.4</ele>
        <time>2020-03-02T15:45:11Z</time>
      </trkpt>
      <trkpt lat="43.57979" lon="5.06909">
        <ele>72.1</ele>
        <time>2020-03-02T15:45:25Z</time>
      </trkpt>
      <trkpt lat="43.57984" lon="5.06933">
        <ele>72</ele>
        <time>2020-03-02T15:45:39Z</time>
      </trkpt>
      <trkpt lat="43.5799" lon="5.06958">
        <ele>72.4</ele>
        <time>2020-03-02T15:45:54Z</time>
      </trkpt>
      <trkpt lat="43.57995" lon="5.06982">
        <ele>72.7</ele>
        <time>2020-03-02T15:46:09Z</time>
      </trkpt>
      <trkpt lat="43.57998" lon="5.07">
        <ele>73.1</ele>
        <time>2020-03-02T15:46:39Z</time>
      </trkpt>
      <trkpt lat="43.57994" lon="5.07022">
        <ele>74</ele>
        <time>2020-03-02T15:46:56Z</time>
      </trkpt>
      <trkpt lat="43.57991" lon="5.07044">
        <ele>74.8</ele>
        <time>2020-03-02T15:47:13Z</time>
      </trkpt>
      <trkpt lat="43.57992" lon="5.07069">
        <ele>75.6</ele>
        <time>2020-03-02T15:47:29Z</time>
      </trkpt>
      <trkpt lat="43.57991" lon="5.07094">
        <ele>76.3</ele>
        <time>2020-03-02T15:47:45Z</time>
      </trkpt>
      <trkpt lat="43.57989" lon="5.0712">
        <ele>76.9</ele>
        <time>2020-03-02T15:48:01Z</time>
      </trkpt>
      <trkpt lat="43.57989" lon="5.07146">
        <ele>77.4</ele>
        <time>2020-03-02T15:48:16Z</time>
      </trkpt>
      <trkpt lat="43.57978" lon="5.07162">
        <ele>77.7</ele>
        <time>2020-03-02T15:48:32Z</time>
      </trkpt>
      <trkpt lat="43.57972" lon="5.07183">
        <ele>77.2</ele>
        <time>2020-03-02T15:48:48Z</time>
      </trkpt>
      <trkpt lat="43.57974" lon="5.07208">
        <ele>76.5</ele>
        <time>2020-03-02T15:49:04Z</time>
      </trkpt>
      <trkpt lat="43.57976" lon="5.07233">
        <ele>75.9</ele>
        <time>2020-03-02T15:49:23Z</time>
      </trkpt>
      <trkpt lat="43.57983" lon="5.07256">
        <ele>75.4</ele>
        <time>2020-03-02T15:49:39Z</time>
      </trkpt>
      <trkpt lat="43.57992" lon="5.07278">
        <ele>75.1</ele>
        <time>2020-03-02T15:49:54Z</time>
      </trkpt>
      <trkpt lat="43.58006" lon="5.07294">
        <ele>75.3</ele>
        <time>2020-03-02T15:50:09Z</time>
      </trkpt>
      <trkpt lat="43.58023" lon="5.07297">
        <ele>76.2</ele>
        <time>2020-03-02T15:50:22Z</time>
      </trkpt>
      <trkpt lat="43.58042" lon="5.07297">
        <ele>77.2</ele>
        <time>2020-03-02T15:50:38Z</time>
      </trkpt>
      <trkpt lat="43.5806" lon="5.07296">
        <ele>78.4</ele>
        <time>2020-03-02T15:50:53Z</time>
      </trkpt>
      <trkpt lat="43.58079" lon="5.073">
        <ele>79.2</ele>
        <time>2020-03-02T15:51:09Z</time>
      </trkpt>
      <trkpt lat="43.58097" lon="5.07302">
        <ele>79.1</ele>
        <time>2020-03-02T15:51:25Z</time>
      </trkpt>
      <trkpt lat="43.58116" lon="5.07302">
        <ele>78.8</ele>
        <time>2020-03-02T15:51:44Z</time>
      </trkpt>
      <trkpt lat="43.58134" lon="5.07304">
        <ele>78.3</ele>
        <time>2020-03-02T15:51:59Z</time>
      </trkpt>
      <trkpt lat="43.58151" lon="5.07314">
        <ele>76.9</ele>
        <time>2020-03-02T15:52:14Z</time>
      </trkpt>
      <trkpt lat="43.58162" lon="5.07329">
        <ele>74.7</ele>
        <time>2020-03-02T15:52:34Z</time>
      </trkpt>
      <trkpt lat="43.58167" lon="5.07345">
        <ele>73.7</ele>
        <time>2020-03-02T15:53:07Z</time>
      </trkpt>
      <trkpt lat="43.58178" lon="5.07366">
        <ele>73.4</ele>
        <time>2020-03-02T15:53:22Z</time>
      </trkpt>
      <trkpt lat="43.58191" lon="5.07384">
        <ele>73.5</ele>
        <time>2020-03-02T15:53:36Z</time>
      </trkpt>
      <trkpt lat="43.58201" lon="5.07405">
        <ele>73.7</ele>
        <time>2020-03-02T15:53:53Z</time>
      </trkpt>
      <trkpt lat="43.58209" lon="5.07428">
        <ele>74.5</ele>
        <time>2020-03-02T15:54:08Z</time>
      </trkpt>
      <trkpt lat="43.58208" lon="5.07453">
        <ele>75.3</ele>
        <time>2020-03-02T15:54:23Z</time>
      </trkpt>
      <trkpt lat="43.58201" lon="5.07477">
        <ele>75.8</ele>
        <time>2020-03-02T15:54:39Z</time>
      </trkpt>
      <trkpt lat="43.58196" lon="5.07502">
        <ele>76.4</ele>
        <time>2020-03-02T15:54:56Z</time>
      </trkpt>
      <trkpt lat="43.58199" lon="5.07527">
        <ele>75.7</ele>
        <time>2020-03-02T15:55:13Z</time>
      </trkpt>
      <trkpt lat="43.5821" lon="5.07548">
        <ele>75.3</ele>
        <time>2020-03-02T15:55:27Z</time>
      </trkpt>
      <trkpt lat="43.58225" lon="5.07563">
        <ele>74.9</ele>
        <time>2020-03-02T15:55:42Z</time>
      </trkpt>
      <trkpt lat="43.58242" lon="5.0757">
        <ele>74.8</ele>
        <time>2020-03-02T15:55:58Z</time>
      </trkpt>
      <trkpt lat="43.5826" lon="5.07565">
        <ele>75.1</ele>
        <time>2020-03-02T15:56:12Z</time>
      </trkpt>
      <trkpt lat="43.58279" lon="5.07564">
        <ele>75.1</ele>
        <time>2020-03-02T15:56:27Z</time>
      </trkpt>
      <trkpt lat="43.58297" lon="5.07571">
        <ele>74.5</ele>
        <time>2020-03-02T15:56:42Z</time>
      </trkpt>
      <trkpt lat="43.58315" lon="5.07579">
        <ele>73.6</ele>
        <time>2020-03-02T15:56:57Z</time>
      </trkpt>
      <trkpt lat="43.58333" lon="5.07588">
        <ele>72.7</ele>
        <time>2020-03-02T15:57:12Z</time>
      </trkpt>
      <trkpt lat="43.58351" lon="5.07595">
        <ele>71.8</ele>
        <time>2020-03-02T15:57:27Z</time>
      </trkpt>
      <trkpt lat="43.58367" lon="5.07608">
        <ele>70.8</ele>
        <time>2020-03-02T15:57:43Z</time>
      </trkpt>
      <trkpt lat="43.58375" lon="5.07631">
        <ele>69.8</ele>
        <time>2020-03-02T15:57:58Z</time>
      </trkpt>
      <trkpt lat="43.58382" lon="5.07654">
        <ele>69</ele>
        <time>2020-03-02T15:58:13Z</time>
      </trkpt>
      <trkpt lat="43.58386" lon="5.0768">
        <ele>68.5</ele>
        <time>2020-03-02T15:58:29Z</time>
      </trkpt>
      <trkpt lat="43.5839" lon="5.07704">
        <ele>68.2</ele>
        <time>2020-03-02T15:58:46Z</time>
      </trkpt>
      <trkpt lat="43.58401" lon="5.07722">
        <ele>68.1</ele>
        <time>2020-03-02T16:00:29Z</time>
      </trkpt>
      <trkpt lat="43.58394" lon="5.07746">
        <ele>67.8</ele>
        <time>2020-03-02T16:00:45Z</time>
      </trkpt>
      <trkpt lat="43.58389" lon="5.07771">
        <ele>67.8</ele>
        <time>2020-03-02T16:01:01Z</time>
      </trkpt>
      <trkpt lat="43.58393" lon="5.07795">
        <ele>68</ele>
        <time>2020-03-02T16:01:18Z</time>
      </trkpt>
      <trkpt lat="43.58406" lon="5.07811">
        <ele>68.1</ele>
        <time>2020-03-02T16:01:35Z</time>
      </trkpt>
      <trkpt lat="43.58415" lon="5.07832">
        <ele>68</ele>
        <time>2020-03-02T16:01:50Z</time>
      </trkpt>
      <trkpt lat="43.58421" lon="5.07855">
        <ele>67.3</ele>
        <time>2020-03-02T16:02:07Z</time>
      </trkpt>
      <trkpt lat="43.58439" lon="5.07857">
        <ele>66.8</ele>
        <time>2020-03-02T16:02:23Z</time>
      </trkpt>
      <trkpt lat="43.58457" lon="5.07856">
        <ele>66.4</ele>
        <time>2020-03-02T16:02:40Z</time>
      </trkpt>
      <trkpt lat="43.58475" lon="5.07851">
        <ele>66</ele>
        <time>2020-03-02T16:02:58Z</time>
      </trkpt>
      <trkpt lat="43.58493" lon="5.07844">
        <ele>65.8</ele>
        <time>2020-03-02T16:03:14Z</time>
      </trkpt>
      <trkpt lat="43.58511" lon="5.07838">
        <ele>65.7</ele>
        <time>2020-03-02T16:03:30Z</time>
      </trkpt>
      <trkpt lat="43.58529" lon="5.07835">
        <ele>65.6</ele>
        <time>2020-03-02T16:03:45Z</time>
      </trkpt>
      <trkpt lat="43.58547" lon="5.07835">
        <ele>65.4</ele>
        <time>2020-03-02T16:04:02Z</time>
      </trkpt>
      <trkpt lat="43.58565" lon="5.07838">
        <ele>65.1</ele>
        <time>2020-03-02T16:04:19Z</time>
      </trkpt>
      <trkpt lat="43.58582" lon="5.07847">
        <ele>64.7</ele>
        <time>2020-03-02T16:04:35Z</time>
      </trkpt>
      <trkpt lat="43.58585" lon="5.07873">
        <ele>64</ele>
        <time>2020-03-02T16:04:51Z</time>
      </trkpt>
      <trkpt lat="43.58598" lon="5.07885">
        <ele>63.2</ele>
        <time>2020-03-02T16:05:09Z</time>
      </trkpt>
      <trkpt lat="43.58616" lon="5.07885">
        <ele>62.6</ele>
        <time>2020-03-02T16:05:27Z</time>
      </trkpt>
      <trkpt lat="43.58627" lon="5.07903">
        <ele>61.7</ele>
        <time>2020-03-02T16:05:47Z</time>
      </trkpt>
      <trkpt lat="43.58631" lon="5.07928">
        <ele>61.3</ele>
        <time>2020-03-02T16:06:06Z</time>
      </trkpt>
      <trkpt lat="43.58631" lon="5.07954">
        <ele>61.3</ele>
        <time>2020-03-02T16:06:23Z</time>
      </trkpt>
      <trkpt lat="43.58635" lon="5.07978">
        <ele>61.1</ele>
        <time>2020-03-02T16:06:39Z</time>
      </trkpt>
      <trkpt lat="43.5864" lon="5.08002">
        <ele>61</ele>
        <time>2020-03-02T16:06:57Z</time>
      </trkpt>
      <trkpt lat="43.58651" lon="5.08024">
        <ele>61</ele>
        <time>2020-03-02T16:07:17Z</time>
      </trkpt>
      <trkpt lat="43.58664" lon="5.08043">
        <ele>61.1</ele>
        <time>2020-03-02T16:07:42Z</time>
      </trkpt>
      <trkpt lat="43.58673" lon="5.08065">
        <ele>61.4</ele>
        <time>2020-03-02T16:07:59Z</time>
      </trkpt>
      <trkpt lat="43.58677" lon="5.0809">
        <ele>61.9</ele>
        <time>2020-03-02T16:08:16Z</time>
      </trkpt>
      <trkpt lat="43.58683" lon="5.08113">
        <ele>62.1</ele>
        <time>2020-03-02T16:08:32Z</time>
      </trkpt>
      <trkpt lat="43.58678" lon="5.08135">
        <ele>62.5</ele>
        <time>2020-03-02T16:08:51Z</time>
      </trkpt>
      <trkpt lat="43.58669" lon="5.08157">
        <ele>62.9</ele>
        <time>2020-03-02T16:09:08Z</time>
      </trkpt>
      <trkpt lat="43.58671" lon="5.08181">
        <ele>63.3</ele>
        <time>2020-03-02T16:09:25Z</time>
      </trkpt>
      <trkpt lat="43.58676" lon="5.08205">
        <ele>63.9</ele>
        <time>2020-03-02T16:09:42Z</time>
      </trkpt>
      <trkpt lat="43.58681" lon="5.08229">
        <ele>64.5</ele>
        <time>2020-03-02T16:10:00Z</time>
      </trkpt>
      <trkpt lat="43.58695" lon="5.08244">
        <ele>64.9</ele>
        <time>2020-03-02T16:10:19Z</time>
      </trkpt>
      <trkpt lat="43.58713" lon="5.08241">
        <ele>64.8</ele>
        <time>2020-03-02T16:10:35Z</time>
      </trkpt>
      <trkpt lat="43.5873" lon="5.08237">
        <ele>64.7</ele>
        <time>2020-03-02T16:10:50Z</time>
      </trkpt>
      <trkpt lat="43.58743" lon="5.08252">
        <ele>65.1</ele>
        <time>2020-03-02T16:11:06Z</time>
      </trkpt>
      <trkpt lat="43.5875" lon="5.08277">
        <ele>65.7</ele>
        <time>2020-03-02T16:11:22Z</time>
      </trkpt>
      <trkpt lat="43.58756" lon="5.08301">
        <ele>66.2</ele>
        <time>2020-03-02T16:11:37Z</time>
      </trkpt>
      <trkpt lat="43.5876" lon="5.08326">
        <ele>66.7</ele>
        <time>2020-03-02T16:11:53Z</time>
      </trkpt>
      <trkpt lat="43.58764" lon="5.0835">
        <ele>67</ele>
        <time>2020-03-02T16:12:10Z</time>
      </trkpt>
      <trkpt lat="43.58771" lon="5.08373">
        <ele>67.2</ele>
        <time>2020-03-02T16:12:27Z</time>
      </trkpt>
      <trkpt lat="43.58776" lon="5.08398">
        <ele>67.5</ele>
        <time>2020-03-02T16:12:43Z</time>
      </trkpt>
      <trkpt lat="43.58774" lon="5.08423">
        <ele>67.5</ele>
        <time>2020-03-02T16:12:59Z</time>
      </trkpt>
      <trkpt lat="43.5877" lon="5.08447">
        <ele>66.9</ele>
        <time>2020-03-02T16:13:15Z</time>
      </trkpt>
      <trkpt lat="43.58782" lon="5.08464">
        <ele>66.6</ele>
        <time>2020-03-02T16:13:32Z</time>
      </trkpt>
      <trkpt lat="43.58785" lon="5.08487">
        <ele>66.1</ele>
        <time>2020-03-02T16:13:59Z</time>
      </trkpt>
      <trkpt lat="43.58802" lon="5.08493">
        <ele>66.3</ele>
        <time>2020-03-02T16:14:13Z</time>
      </trkpt>
      <trkpt lat="43.5882" lon="5.08496">
        <ele>66.7</ele>
        <time>2020-03-02T16:14:29Z</time>
      </trkpt>
      <trkpt lat="43.58839" lon="5.0849">
        <ele>67.1</ele>
        <time>2020-03-02T16:14:48Z</time>
      </trkpt>
      <trkpt lat="43.58857" lon="5.08481">
        <ele>67.4</ele>
        <time>2020-03-02T16:15:04Z</time>
      </trkpt>
      <trkpt lat="43.58873" lon="5.08471">
        <ele>67.5</ele>
        <time>2020-03-02T16:15:26Z</time>
      </trkpt>
      <trkpt lat="43.58891" lon="5.08465">
        <ele>67.5</ele>
        <time>2020-03-02T16:15:43Z</time>
      </trkpt>
      <trkpt lat="43.5891" lon="5.08458">
        <ele>67.5</ele>
        <time>2020-03-02T16:15:59Z</time>
      </trkpt>
      <trkpt lat="43.58927" lon="5.0846">
        <ele>67.4</ele>
        <time>2020-03-02T16:16:19Z</time>
      </trkpt>
      <trkpt lat="43.58936" lon="5.08483">
        <ele>68.3</ele>
        <time>2020-03-02T16:16:38Z</time>
      </trkpt>
      <trkpt lat="43.5894" lon="5.08507">
        <ele>69.3</ele>
        <time>2020-03-02T16:17:16Z</time>
      </trkpt>
      <trkpt lat="43.58946" lon="5.0853">
        <ele>70.6</ele>
        <time>2020-03-02T16:17:36Z</time>
      </trkpt>
      <trkpt lat="43.58954" lon="5.08553">
        <ele>72.2</ele>
        <time>2020-03-02T16:17:55Z</time>
      </trkpt>
      <trkpt lat="43.58961" lon="5.08576">
        <ele>74.2</ele>
        <time>2020-03-02T16:18:15Z</time>
      </trkpt>
      <trkpt lat="43.58967" lon="5.08599">
        <ele>76</ele>
        <time>2020-03-02T16:18:39Z</time>
      </trkpt>
      <trkpt lat="43.58982" lon="5.08612">
        <ele>77.8</ele>
        <time>2020-03-02T16:19:00Z</time>
      </trkpt>
      <trkpt lat="43.58999" lon="5.08604">
        <ele>78.9</ele>
        <time>2020-03-02T16:19:19Z</time>
      </trkpt>
      <trkpt lat="43.59016" lon="5.08594">
        <ele>79.4</ele>
        <time>2020-03-02T16:19:36Z</time>
      </trkpt>
      <trkpt lat="43.59034" lon="5.08588">
        <ele>80.2</ele>
        <time>2020-03-02T16:19:53Z</time>
      </trkpt>
      <trkpt lat="43.59043" lon="5.08606">
        <ele>81.3</ele>
        <time>2020-03-02T16:20:11Z</time>
      </trkpt>
      <trkpt lat="43.59057" lon="5.08619">
        <ele>82.3</ele>
        <time>2020-03-02T16:20:29Z</time>
      </trkpt>
      <trkpt lat="43.59074" lon="5.08622">
        <ele>83.1</ele>
        <time>2020-03-02T16:20:51Z</time>
      </trkpt>
      <trkpt lat="43.59089" lon="5.08614">
        <ele>83.4</ele>
        <time>2020-03-02T16:21:09Z</time>
      </trkpt>
      <trkpt lat="43.59095" lon="5.0861">
        <ele>83.3</ele>
        <time>2020-03-02T16:25:14Z</time>
      </trkpt>
      <trkpt lat="43.59082" lon="5.08615">
        <ele>83.3</ele>
        <time>2020-03-02T16:26:24Z</time>
      </trkpt>
      <trkpt lat="43.59067" lon="5.08619">
        <ele>82.7</ele>
        <time>2020-03-02T16:26:55Z</time>
      </trkpt>
      <trkpt lat="43.5905" lon="5.08622">
        <ele>82</ele>
        <time>2020-03-02T16:27:22Z</time>
      </trkpt>
      <trkpt lat="43.59057" lon="5.0864">
        <ele>82.7</ele>
        <time>2020-03-02T16:27:44Z</time>
      </trkpt>
      <trkpt lat="43.59065" lon="5.08662">
        <ele>83.5</ele>
        <time>2020-03-02T16:28:00Z</time>
      </trkpt>
      <trkpt lat="43.59081" lon="5.08673">
        <ele>83</ele>
        <time>2020-03-02T16:28:15Z</time>
      </trkpt>
      <trkpt lat="43.59099" lon="5.08679">
        <ele>82.3</ele>
        <time>2020-03-02T16:28:32Z</time>
      </trkpt>
      <trkpt lat="43.59115" lon="5.08689">
        <ele>81</ele>
        <time>2020-03-02T16:28:48Z</time>
      </trkpt>
      <trkpt lat="43.59132" lon="5.08699">
        <ele>80.1</ele>
        <time>2020-03-02T16:29:06Z</time>
      </trkpt>
      <trkpt lat="43.59151" lon="5.08701">
        <ele>80.1</ele>
        <time>2020-03-02T16:29:26Z</time>
      </trkpt>
      <trkpt lat="43.5917" lon="5.087">
        <ele>80.4</ele>
        <time>2020-03-02T16:29:44Z</time>
      </trkpt>
      <trkpt lat="43.59188" lon="5.08696">
        <ele>80.7</ele>
        <time>2020-03-02T16:30:04Z</time>
      </trkpt>
      <trkpt lat="43.59206" lon="5.087">
        <ele>80.3</ele>
        <time>2020-03-02T16:30:20Z</time>
      </trkpt>
      <trkpt lat="43.59222" lon="5.08713">
        <ele>79.1</ele>
        <time>2020-03-02T16:30:38Z</time>
      </trkpt>
      <trkpt lat="43.5924" lon="5.08719">
        <ele>78.6</ele>
        <time>2020-03-02T16:30:55Z</time>
      </trkpt>
      <trkpt lat="43.59259" lon="5.08722">
        <ele>78.4</ele>
        <time>2020-03-02T16:31:14Z</time>
      </trkpt>
      <trkpt lat="43.59277" lon="5.08726">
        <ele>78.2</ele>
        <time>2020-03-02T16:31:35Z</time>
      </trkpt>
      <trkpt lat="43.59294" lon="5.08738">
        <ele>77.5</ele>
        <time>2020-03-02T16:31:51Z</time>
      </trkpt>
      <trkpt lat="43.59312" lon="5.08739">
        <ele>77.6</ele>
        <time>2020-03-02T16:32:07Z</time>
      </trkpt>
      <trkpt lat="43.59315" lon="5.08751">
        <ele>76.6</ele>
        <time>2020-03-02T16:33:21Z</time>
      </trkpt>
      <trkpt lat="43.59303" lon="5.0877">
        <ele>74.1</ele>
        <time>2020-03-02T16:33:39Z</time>
      </trkpt>
      <trkpt lat="43.59285" lon="5.08771">
        <ele>73.7</ele>
        <time>2020-03-02T16:33:53Z</time>
      </trkpt>
      <trkpt lat="43.59266" lon="5.08771">
        <ele>73.3</ele>
        <time>2020-03-02T16:34:08Z</time>
      </trkpt>
      <trkpt lat="43.59248" lon="5.08772">
        <ele>72.8</ele>
        <time>2020-03-02T16:34:22Z</time>
      </trkpt>
      <trkpt lat="43.59231" lon="5.08772">
        <ele>72.6</ele>
        <time>2020-03-02T16:34:36Z</time>
      </trkpt>
      <trkpt lat="43.59213" lon="5.08776">
        <ele>71.7</ele>
        <time>2020-03-02T16:34:53Z</time>
      </trkpt>
      <trkpt lat="43.59205" lon="5.08792">
        <ele>69.2</ele>
        <time>2020-03-02T16:35:14Z</time>
      </trkpt>
      <trkpt lat="43.59221" lon="5.08801">
        <ele>68.1</ele>
        <time>2020-03-02T16:35:33Z</time>
      </trkpt>
      <trkpt lat="43.59239" lon="5.08802">
        <ele>68.3</ele>
        <time>2020-03-02T16:35:49Z</time>
      </trkpt>
      <trkpt lat="43.59257" lon="5.08808">
        <ele>67.8</ele>
        <time>2020-03-02T16:36:06Z</time>
      </trkpt>
      <trkpt lat="43.59273" lon="5.08821">
        <ele>66.6</ele>
        <time>2020-03-02T16:36:21Z</time>
      </trkpt>
      <trkpt lat="43.59291" lon="5.08827">
        <ele>66.2</ele>
        <time>2020-03-02T16:36:39Z</time>
      </trkpt>
      <trkpt lat="43.59307" lon="5.08838">
        <ele>65.6</ele>
        <time>2020-03-02T16:37:09Z</time>
      </trkpt>
      <trkpt lat="43.59325" lon="5.08843">
        <ele>65.8</ele>
        <time>2020-03-02T16:37:41Z</time>
      </trkpt>
      <trkpt lat="43.59341" lon="5.08853">
        <ele>65.4</ele>
        <time>2020-03-02T16:37:59Z</time>
      </trkpt>
      <trkpt lat="43.5936" lon="5.08861">
        <ele>65.3</ele>
        <time>2020-03-02T16:38:16Z</time>
      </trkpt>
      <trkpt lat="43.59377" lon="5.0887">
        <ele>64.9</ele>
        <time>2020-03-02T16:38:34Z</time>
      </trkpt>
      <trkpt lat="43.59394" lon="5.08879">
        <ele>64.4</ele>
        <time>2020-03-02T16:38:50Z</time>
      </trkpt>
      <trkpt lat="43.5941" lon="5.08888">
        <ele>63.6</ele>
        <time>2020-03-02T16:39:06Z</time>
      </trkpt>
      <trkpt lat="43.59428" lon="5.08896">
        <ele>63.2</ele>
        <time>2020-03-02T16:39:23Z</time>
      </trkpt>
      <trkpt lat="43.59445" lon="5.08908">
        <ele>62.5</ele>
        <time>2020-03-02T16:39:40Z</time>
      </trkpt>
      <trkpt lat="43.59459" lon="5.0892">
        <ele>61.8</ele>
        <time>2020-03-02T16:40:09Z</time>
      </trkpt>
      <trkpt lat="43.59475" lon="5.08926">
        <ele>62.2</ele>
        <time>2020-03-02T16:41:00Z</time>
      </trkpt>
      <trkpt lat="43.59492" lon="5.08932">
        <ele>62.5</ele>
        <time>2020-03-02T16:41:18Z</time>
      </trkpt>
      <trkpt lat="43.59509" lon="5.08939">
        <ele>62.1</ele>
        <time>2020-03-02T16:41:33Z</time>
      </trkpt>
      <trkpt lat="43.59526" lon="5.08948">
        <ele>61</ele>
        <time>2020-03-02T16:41:50Z</time>
      </trkpt>
      <trkpt lat="43.59544" lon="5.08945">
        <ele>60.7</ele>
        <time>2020-03-02T16:42:07Z</time>
      </trkpt>
      <trkpt lat="43.59561" lon="5.08935">
        <ele>60.8</ele>
        <time>2020-03-02T16:42:23Z</time>
      </trkpt>
      <trkpt lat="43.59579" lon="5.08927">
        <ele>60.7</ele>
        <time>2020-03-02T16:42:39Z</time>
      </trkpt>
      <trkpt lat="43.59597" lon="5.08921">
        <ele>60.7</ele>
        <time>2020-03-02T16:42:56Z</time>
      </trkpt>
      <trkpt lat="43.59616" lon="5.08921">
        <ele>60.4</ele>
        <time>2020-03-02T16:43:14Z</time>
      </trkpt>
      <trkpt lat="43.59633" lon="5.08926">
        <ele>60.1</ele>
        <time>2020-03-02T16:43:30Z</time>
      </trkpt>
      <trkpt lat="43.59651" lon="5.08932">
        <ele>59.7</ele>
        <time>2020-03-02T16:43:48Z</time>
      </trkpt>
      <trkpt lat="43.59661" lon="5.08921">
        <ele>60</ele>
        <time>2020-03-02T16:44:28Z</time>
      </trkpt>
      <trkpt lat="43.59676" lon="5.08914">
        <ele>60.1</ele>
        <time>2020-03-02T16:45:10Z</time>
      </trkpt>
      <trkpt lat="43.59694" lon="5.08921">
        <ele>59.9</ele>
        <time>2020-03-02T16:45:42Z</time>
      </trkpt>
      <trkpt lat="43.59711" lon="5.08927">
        <ele>59.7</ele>
        <time>2020-03-02T16:46:31Z</time>
      </trkpt>
      <trkpt lat="43.59719" lon="5.08917">
        <ele>60</ele>
        <time>2020-03-02T16:49:01Z</time>
      </trkpt>
      <trkpt lat="43.59733" lon="5.08902">
        <ele>60.5</ele>
        <time>2020-03-02T16:49:23Z</time>
      </trkpt>
      <trkpt lat="43.59749" lon="5.08888">
        <ele>60.7</ele>
        <time>2020-03-02T16:49:44Z</time>
      </trkpt>
      <trkpt lat="43.59751" lon="5.08865">
        <ele>61.2</ele>
        <time>2020-03-02T16:50:03Z</time>
      </trkpt>
      <trkpt lat="43.59755" lon="5.08841">
        <ele>61.6</ele>
        <time>2020-03-02T16:50:21Z</time>
      </trkpt>
      <trkpt lat="43.59765" lon="5.08819">
        <ele>61.8</ele>
        <time>2020-03-02T16:50:42Z</time>
      </trkpt>
      <trkpt lat="43.5977" lon="5.08795">
        <ele>62.1</ele>
        <time>2020-03-02T16:51:00Z</time>
      </trkpt>
      <trkpt lat="43.59771" lon="5.0877">
        <ele>62.6</ele>
        <time>2020-03-02T16:51:15Z</time>
      </trkpt>
      <trkpt lat="43.59772" lon="5.08745">
        <ele>63</ele>
        <time>2020-03-02T16:51:32Z</time>
      </trkpt>
      <trkpt lat="43.5977" lon="5.08721">
        <ele>63.7</ele>
        <time>2020-03-02T16:51:51Z</time>
      </trkpt>
      <trkpt lat="43.59775" lon="5.08696">
        <ele>63.9</ele>
        <time>2020-03-02T16:52:08Z</time>
      </trkpt>
      <trkpt lat="43.59777" lon="5.08671">
        <ele>64.3</ele>
        <time>2020-03-02T16:52:25Z</time>
      </trkpt>
      <trkpt lat="43.59774" lon="5.08646">
        <ele>64.9</ele>
        <time>2020-03-02T16:52:42Z</time>
      </trkpt>
      <trkpt lat="43.59772" lon="5.08621">
        <ele>65.5</ele>
        <time>2020-03-02T16:52:58Z</time>
      </trkpt>
      <trkpt lat="43.59769" lon="5.08595">
        <ele>66.2</ele>
        <time>2020-03-02T16:53:14Z</time>
      </trkpt>
      <trkpt lat="43.5977" lon="5.08569">
        <ele>66.2</ele>
        <time>2020-03-02T16:53:31Z</time>
      </trkpt>
      <trkpt lat="43.5977" lon="5.08544">
        <ele>66</ele>
        <time>2020-03-02T16:53:48Z</time>
      </trkpt>
      <trkpt lat="43.59768" lon="5.08519">
        <ele>66</ele>
        <time>2020-03-02T16:54:03Z</time>
      </trkpt>
      <trkpt lat="43.59764" lon="5.08494">
        <ele>66</ele>
        <time>2020-03-02T16:54:19Z</time>
      </trkpt>
      <trkpt lat="43.5976" lon="5.08469">
        <ele>65.4</ele>
        <time>2020-03-02T16:54:34Z</time>
      </trkpt>
      <trkpt lat="43.59754" lon="5.08444">
        <ele>64.8</ele>
        <time>2020-03-02T16:54:50Z</time>
      </trkpt>
      <trkpt lat="43.5975" lon="5.08418">
        <ele>64</ele>
        <time>2020-03-02T16:55:07Z</time>
      </trkpt>
      <trkpt lat="43.59762" lon="5.08403">
        <ele>63.6</ele>
        <time>2020-03-02T16:55:21Z</time>
      </trkpt>
      <trkpt lat="43.59779" lon="5.08398">
        <ele>63.2</ele>
        <time>2020-03-02T16:55:38Z</time>
      </trkpt>
      <trkpt lat="43.59781" lon="5.08374">
        <ele>62.9</ele>
        <time>2020-03-02T16:55:54Z</time>
      </trkpt>
      <trkpt lat="43.59781" lon="5.08347">
        <ele>62.7</ele>
        <time>2020-03-02T16:56:11Z</time>
      </trkpt>
      <trkpt lat="43.59779" lon="5.08322">
        <ele>62.5</ele>
        <time>2020-03-02T16:56:27Z</time>
      </trkpt>
      <trkpt lat="43.59777" lon="5.08296">
        <ele>62.1</ele>
        <time>2020-03-02T16:56:44Z</time>
      </trkpt>
      <trkpt lat="43.59773" lon="5.08271">
        <ele>61.8</ele>
        <time>2020-03-02T16:57:00Z</time>
      </trkpt>
      <trkpt lat="43.59771" lon="5.08245">
        <ele>61.5</ele>
        <time>2020-03-02T16:57:17Z</time>
      </trkpt>
      <trkpt lat="43.59767" lon="5.08221">
        <ele>61.7</ele>
        <time>2020-03-02T16:57:34Z</time>
      </trkpt>
      <trkpt lat="43.59763" lon="5.08196">
        <ele>61.8</ele>
        <time>2020-03-02T16:57:53Z</time>
      </trkpt>
      <trkpt lat="43.59753" lon="5.08175">
        <ele>62</ele>
        <time>2020-03-02T16:58:12Z</time>
      </trkpt>
      <trkpt lat="43.59765" lon="5.0816">
        <ele>61.8</ele>
        <time>2020-03-02T16:58:48Z</time>
      </trkpt>
      <trkpt lat="43.59761" lon="5.08134">
        <ele>61.5</ele>
        <time>2020-03-02T16:59:04Z</time>
      </trkpt>
      <trkpt lat="43.59762" lon="5.0811">
        <ele>61.3</ele>
        <time>2020-03-02T16:59:22Z</time>
      </trkpt>
      <trkpt lat="43.59759" lon="5.08084">
        <ele>61</ele>
        <time>2020-03-02T16:59:45Z</time>
      </trkpt>
      <trkpt lat="43.59756" lon="5.08059">
        <ele>61</ele>
        <time>2020-03-02T17:00:01Z</time>
      </trkpt>
      <trkpt lat="43.59753" lon="5.08034">
        <ele>61</ele>
        <time>2020-03-02T17:00:17Z</time>
      </trkpt>
      <trkpt lat="43.5975" lon="5.0801">
        <ele>61</ele>
        <time>2020-03-02T17:00:39Z</time>
      </trkpt>
      <trkpt lat="43.59747" lon="5.07985">
        <ele>61.1</ele>
        <time>2020-03-02T17:01:01Z</time>
      </trkpt>
      <trkpt lat="43.59741" lon="5.07959">
        <ele>61.2</ele>
        <time>2020-03-02T17:01:16Z</time>
      </trkpt>
      <trkpt lat="43.59737" lon="5.07935">
        <ele>61.3</ele>
        <time>2020-03-02T17:01:32Z</time>
      </trkpt>
      <trkpt lat="43.59735" lon="5.07909">
        <ele>61.3</ele>
        <time>2020-03-02T17:01:47Z</time>
      </trkpt>
      <trkpt lat="43.59733" lon="5.07885">
        <ele>61.3</ele>
        <time>2020-03-02T17:02:02Z</time>
      </trkpt>
      <trkpt lat="43.59728" lon="5.0786">
        <ele>61.3</ele>
        <time>2020-03-02T17:02:17Z</time>
      </trkpt>
      <trkpt lat="43.59723" lon="5.07835">
        <ele>61.3</ele>
        <time>2020-03-02T17:02:32Z</time>
      </trkpt>
      <trkpt lat="43.59714" lon="5.07812">
        <ele>61.3</ele>
        <time>2020-03-02T17:02:50Z</time>
      </trkpt>
      <trkpt lat="43.59704" lon="5.0779">
        <ele>61.3</ele>
        <time>2020-03-02T17:03:06Z</time>
      </trkpt>
      <trkpt lat="43.59693" lon="5.07769">
        <ele>61.2</ele>
        <time>2020-03-02T17:03:28Z</time>
      </trkpt>
      <trkpt lat="43.59683" lon="5.07748">
        <ele>61.1</ele>
        <time>2020-03-02T17:03:42Z</time>
      </trkpt>
      <trkpt lat="43.59673" lon="5.07726">
        <ele>61.8</ele>
        <time>2020-03-02T17:03:57Z</time>
      </trkpt>
      <trkpt lat="43.59663" lon="5.07704">
        <ele>62.8</ele>
        <time>2020-03-02T17:04:13Z</time>
      </trkpt>
      <trkpt lat="43.59655" lon="5.07681">
        <ele>63.8</ele>
        <time>2020-03-02T17:04:28Z</time>
      </trkpt>
      <trkpt lat="43.5965" lon="5.07657">
        <ele>63.9</ele>
        <time>2020-03-02T17:04:43Z</time>
      </trkpt>
      <trkpt lat="43.59644" lon="5.07632">
        <ele>62.7</ele>
        <time>2020-03-02T17:04:58Z</time>
      </trkpt>
      <trkpt lat="43.59639" lon="5.07606">
        <ele>61.3</ele>
        <time>2020-03-02T17:05:13Z</time>
      </trkpt>
      <trkpt lat="43.59631" lon="5.07583">
        <ele>60</ele>
        <time>2020-03-02T17:05:29Z</time>
      </trkpt>
      <trkpt lat="43.59632" lon="5.07558">
        <ele>59</ele>
        <time>2020-03-02T17:05:43Z</time>
      </trkpt>
      <trkpt lat="43.59628" lon="5.07533">
        <ele>57.9</ele>
        <time>2020-03-02T17:05:58Z</time>
      </trkpt>
      <trkpt lat="43.59627" lon="5.07507">
        <ele>56.8</ele>
        <time>2020-03-02T17:06:12Z</time>
      </trkpt>
      <trkpt lat="43.59623" lon="5.07483">
        <ele>56.4</ele>
        <time>2020-03-02T17:06:26Z</time>
      </trkpt>
      <trkpt lat="43.59616" lon="5.07459">
        <ele>56.2</ele>
        <time>2020-03-02T17:06:41Z</time>
      </trkpt>
      <trkpt lat="43.59609" lon="5.07435">
        <ele>56.1</ele>
        <time>2020-03-02T17:06:56Z</time>
      </trkpt>
      <trkpt lat="43.59603" lon="5.07411">
        <ele>56</ele>
        <time>2020-03-02T17:07:12Z</time>
      </trkpt>
      <trkpt lat="43.59596" lon="5.07387">
        <ele>56.1</ele>
        <time>2020-03-02T17:07:29Z</time>
      </trkpt>
      <trkpt lat="43.59587" lon="5.07369">
        <ele>56</ele>
        <time>2020-03-02T17:07:47Z</time>
      </trkpt>
      <trkpt lat="43.59577" lon="5.07345">
        <ele>56.2</ele>
        <time>2020-03-02T17:08:02Z</time>
      </trkpt>
      <trkpt lat="43.59568" lon="5.07323">
        <ele>56.7</ele>
        <time>2020-03-02T17:08:17Z</time>
      </trkpt>
      <trkpt lat="43.59558" lon="5.07301">
        <ele>57.4</ele>
        <time>2020-03-02T17:08:32Z</time>
      </trkpt>
      <trkpt lat="43.59552" lon="5.07277">
        <ele>58.1</ele>
        <time>2020-03-02T17:08:47Z</time>
      </trkpt>
      <trkpt lat="43.59545" lon="5.07253">
        <ele>58.8</ele>
        <time>2020-03-02T17:09:02Z</time>
      </trkpt>
      <trkpt lat="43.59537" lon="5.07231">
        <ele>59.6</ele>
        <time>2020-03-02T17:09:16Z</time>
      </trkpt>
      <trkpt lat="43.59531" lon="5.07205">
        <ele>60.4</ele>
        <time>2020-03-02T17:09:32Z</time>
      </trkpt>
      <trkpt lat="43.59526" lon="5.07181">
        <ele>61.2</ele>
        <time>2020-03-02T17:09:47Z</time>
      </trkpt>
      <trkpt lat="43.59522" lon="5.07156">
        <ele>62.5</ele>
        <time>2020-03-02T17:10:03Z</time>
      </trkpt>
      <trkpt lat="43.59517" lon="5.07132">
        <ele>64.7</ele>
        <time>2020-03-02T17:10:18Z</time>
      </trkpt>
      <trkpt lat="43.59512" lon="5.07107">
        <ele>66.8</ele>
        <time>2020-03-02T17:10:37Z</time>
      </trkpt>
      <trkpt lat="43.59507" lon="5.07082">
        <ele>68.7</ele>
        <time>2020-03-02T17:10:56Z</time>
      </trkpt>
      <trkpt lat="43.595" lon="5.07059">
        <ele>68.4</ele>
        <time>2020-03-02T17:11:13Z</time>
      </trkpt>
      <trkpt lat="43.59488" lon="5.07038">
        <ele>68</ele>
        <time>2020-03-02T17:11:29Z</time>
      </trkpt>
      <trkpt lat="43.59477" lon="5.07018">
        <ele>67.6</ele>
        <time>2020-03-02T17:11:46Z</time>
      </trkpt>
      <trkpt lat="43.59475" lon="5.07017">
        <ele>67.6</ele>
        <time>2020-03-02T17:12:05Z</time>
      </trkpt>
      <trkpt lat="43.59468" lon="5.07004">
        <ele>67.5</ele>
        <time>2020-03-02T17:12:26Z</time>
      </trkpt>
      <trkpt lat="43.59457" lon="5.06982">
        <ele>67.4</ele>
        <time>2020-03-02T17:12:41Z</time>
      </trkpt>
      <trkpt lat="43.59446" lon="5.06961">
        <ele>67.6</ele>
        <time>2020-03-02T17:12:58Z</time>
      </trkpt>
      <trkpt lat="43.59438" lon="5.06937">
        <ele>67.9</ele>
        <time>2020-03-02T17:13:14Z</time>
      </trkpt>
      <trkpt lat="43.59429" lon="5.06916">
        <ele>68.4</ele>
        <time>2020-03-02T17:13:30Z</time>
      </trkpt>
      <trkpt lat="43.59417" lon="5.06896">
        <ele>69.2</ele>
        <time>2020-03-02T17:13:48Z</time>
      </trkpt>
      <trkpt lat="43.59406" lon="5.06877">
        <ele>69.9</ele>
        <time>2020-03-02T17:14:03Z</time>
      </trkpt>
      <trkpt lat="43.59393" lon="5.06858">
        <ele>70.5</ele>
        <time>2020-03-02T17:14:21Z</time>
      </trkpt>
      <trkpt lat="43.59379" lon="5.06842">
        <ele>70.9</ele>
        <time>2020-03-02T17:14:39Z</time>
      </trkpt>
      <trkpt lat="43.59373" lon="5.06837">
        <ele>71.1</ele>
        <time>2020-03-02T17:14:48Z</time>
      </trkpt>
    </trkseg>
  </trk>
</gpx>